<?xml version="1.0" encoding="UTF-8" standalone="no" ?>
<gpx xmlns="http://www.topografix.com/GPX/1/1" xmlns:xsi="http://www.w3.org/2001/XMLSchema-instance" xsi:schemaLocation="http://www.topografix.com/GPX/1/1 http://www.topografix.com/GPX/1/1/gpx.xsd" version="1.1" creator="VisuGPX - https://www.visugpx.com">
  <metadata>
    <name>Luz St Sauveur / Col de Spandelles</name>
    <desc><![CDATA[Moyenne 7.0 Km/h]]></desc>
  </metadata>
  <trk>
    <name><![CDATA[Luz St Sauveur / Col de Spandelles_1]]></name>
    <extensions>
      <line xmlns="http://www.topografix.com/GPX/gpx_style/0/2">
        <color>0000FF</color>
        <width>4</width>
      </line>
    </extensions>
    <trkseg>
      <trkpt lat="42.87181" lon="-0.00321">
        <ele>716.1</ele>
        <time>2024-08-26T22:00:00.000Z</time>
      </trkpt>
      <trkpt lat="42.87194" lon="-0.00328">
        <ele>715.4</ele>
        <time>2024-08-26T22:00:05.491Z</time>
      </trkpt>
      <trkpt lat="42.87217" lon="-0.00349">
        <ele>713.1</ele>
        <time>2024-08-26T22:00:16.365Z</time>
      </trkpt>
      <trkpt lat="42.87217" lon="-0.00378">
        <ele>711.5</ele>
        <time>2024-08-26T22:00:24.716Z</time>
      </trkpt>
      <trkpt lat="42.87219" lon="-0.00397">
        <ele>710.4</ele>
        <time>2024-08-26T22:00:30.244Z</time>
      </trkpt>
      <trkpt lat="42.87226" lon="-0.00436">
        <ele>707.6</ele>
        <time>2024-08-26T22:00:41.806Z</time>
      </trkpt>
      <trkpt lat="42.87237" lon="-0.00476">
        <ele>705.7</ele>
        <time>2024-08-26T22:00:54.109Z</time>
      </trkpt>
      <trkpt lat="42.87233" lon="-0.00483">
        <ele>705.2</ele>
        <time>2024-08-26T22:00:56.665Z</time>
        <extensions>
          <visugpx:TrkExtension xmlns:visugpx="https://www.visugpx.com/editgpx/">
            <visugpx:node>1</visugpx:node>
            </visugpx:TrkExtension>
        </extensions>
      </trkpt>
      <trkpt lat="42.87298" lon="-0.0038">
        <ele>709.1</ele>
        <time>2024-08-26T22:01:47.279Z</time>
      </trkpt>
      <trkpt lat="42.8733" lon="-0.00326">
        <ele>710.3</ele>
        <time>2024-08-26T22:02:11.880Z</time>
      </trkpt>
      <trkpt lat="42.87348" lon="-0.00326">
        <ele>709.7</ele>
        <time>2024-08-26T22:02:19.190Z</time>
      </trkpt>
      <trkpt lat="42.87421" lon="-0.00315">
        <ele>708.5</ele>
        <time>2024-08-26T22:02:50.569Z</time>
        <extensions>
          <visugpx:TrkExtension xmlns:visugpx="https://www.visugpx.com/editgpx/">
            <visugpx:node>2</visugpx:node>
            </visugpx:TrkExtension>
        </extensions>
      </trkpt>
      <trkpt lat="42.87427" lon="-0.00315">
        <ele>708.3</ele>
        <time>2024-08-26T22:02:53.005Z</time>
      </trkpt>
      <trkpt lat="42.87436" lon="-0.00318">
        <ele>707.9</ele>
        <time>2024-08-26T22:02:56.661Z</time>
      </trkpt>
      <trkpt lat="42.87448" lon="-0.0033">
        <ele>706.9</ele>
        <time>2024-08-26T22:03:02.506Z</time>
      </trkpt>
      <trkpt lat="42.87525" lon="-0.00445">
        <ele>698.1</ele>
        <time>2024-08-26T22:03:47.361Z</time>
      </trkpt>
      <trkpt lat="42.87742" lon="-0.00761">
        <ele>685.6</ele>
        <time>2024-08-26T22:05:53.968Z</time>
        <extensions>
          <visugpx:TrkExtension xmlns:visugpx="https://www.visugpx.com/editgpx/">
            <visugpx:node>3</visugpx:node>
            </visugpx:TrkExtension>
        </extensions>
      </trkpt>
      <trkpt lat="42.8799" lon="-0.01121">
        <ele>673.3</ele>
        <time>2024-08-26T22:08:20.734Z</time>
      </trkpt>
      <trkpt lat="42.88007" lon="-0.01145">
        <ele>671.8</ele>
        <time>2024-08-26T22:08:30.345Z</time>
      </trkpt>
      <trkpt lat="42.88022" lon="-0.01163">
        <ele>671.1</ele>
        <time>2024-08-26T22:08:38.416Z</time>
      </trkpt>
      <trkpt lat="42.88219" lon="-0.01316">
        <ele>662.3</ele>
        <time>2024-08-26T22:10:08.993Z</time>
      </trkpt>
      <trkpt lat="42.88498" lon="-0.01527">
        <ele>648.2</ele>
        <time>2024-08-26T22:12:14.466Z</time>
      </trkpt>
      <trkpt lat="42.88515" lon="-0.01542">
        <ele>647.5</ele>
        <time>2024-08-26T22:12:22.657Z</time>
        <extensions>
          <visugpx:TrkExtension xmlns:visugpx="https://www.visugpx.com/editgpx/">
            <visugpx:node>4</visugpx:node>
            </visugpx:TrkExtension>
        </extensions>
      </trkpt>
      <trkpt lat="42.88527" lon="-0.01557">
        <ele>646</ele>
        <time>2024-08-26T22:12:29.051Z</time>
      </trkpt>
      <trkpt lat="42.88532" lon="-0.01571">
        <ele>645.6</ele>
        <time>2024-08-26T22:12:33.662Z</time>
      </trkpt>
      <trkpt lat="42.88537" lon="-0.01569">
        <ele>646</ele>
        <time>2024-08-26T22:12:36.660Z</time>
      </trkpt>
      <trkpt lat="42.88546" lon="-0.0157">
        <ele>646.4</ele>
        <time>2024-08-26T22:12:41.325Z</time>
      </trkpt>
      <trkpt lat="42.88565" lon="-0.01585">
        <ele>645.6</ele>
        <time>2024-08-26T22:12:50.158Z</time>
      </trkpt>
      <trkpt lat="42.88578" lon="-0.01592">
        <ele>645.5</ele>
        <time>2024-08-26T22:12:56.297Z</time>
      </trkpt>
      <trkpt lat="42.88585" lon="-0.01593">
        <ele>645.7</ele>
        <time>2024-08-26T22:12:59.752Z</time>
      </trkpt>
      <trkpt lat="42.88612" lon="-0.01588">
        <ele>648.9</ele>
        <time>2024-08-26T22:13:17.813Z</time>
      </trkpt>
      <trkpt lat="42.88632" lon="-0.0159">
        <ele>650.8</ele>
        <time>2024-08-26T22:13:30.087Z</time>
      </trkpt>
      <trkpt lat="42.88643" lon="-0.01593">
        <ele>651.3</ele>
        <time>2024-08-26T22:13:35.887Z</time>
      </trkpt>
      <trkpt lat="42.88677" lon="-0.01607">
        <ele>652.4</ele>
        <time>2024-08-26T22:13:53.463Z</time>
      </trkpt>
      <trkpt lat="42.88696" lon="-0.01618">
        <ele>653.6</ele>
        <time>2024-08-26T22:14:04.622Z</time>
      </trkpt>
      <trkpt lat="42.88706" lon="-0.01626">
        <ele>653.7</ele>
        <time>2024-08-26T22:14:09.968Z</time>
      </trkpt>
      <trkpt lat="42.88737" lon="-0.01659">
        <ele>649.5</ele>
        <time>2024-08-26T22:14:25.415Z</time>
      </trkpt>
      <trkpt lat="42.88755" lon="-0.01672">
        <ele>648.9</ele>
        <time>2024-08-26T22:14:33.781Z</time>
      </trkpt>
      <trkpt lat="42.88795" lon="-0.01695">
        <ele>652.7</ele>
        <time>2024-08-26T22:14:59.695Z</time>
      </trkpt>
      <trkpt lat="42.88807" lon="-0.01705">
        <ele>654.4</ele>
        <time>2024-08-26T22:15:09.130Z</time>
      </trkpt>
      <trkpt lat="42.88817" lon="-0.01719">
        <ele>654.9</ele>
        <time>2024-08-26T22:15:16.310Z</time>
      </trkpt>
      <trkpt lat="42.8885" lon="-0.01778">
        <ele>650.1</ele>
        <time>2024-08-26T22:15:37.679Z</time>
      </trkpt>
      <trkpt lat="42.88902" lon="-0.01838">
        <ele>650.4</ele>
        <time>2024-08-26T22:16:08.675Z</time>
      </trkpt>
      <trkpt lat="42.88923" lon="-0.01857">
        <ele>649.7</ele>
        <time>2024-08-26T22:16:19.077Z</time>
      </trkpt>
      <trkpt lat="42.88956" lon="-0.0188">
        <ele>652.5</ele>
        <time>2024-08-26T22:16:40.313Z</time>
      </trkpt>
      <trkpt lat="42.89056" lon="-0.01939">
        <ele>656.1</ele>
        <time>2024-08-26T22:17:34.589Z</time>
      </trkpt>
      <trkpt lat="42.89107" lon="-0.01971">
        <ele>656.3</ele>
        <time>2024-08-26T22:18:00.073Z</time>
      </trkpt>
      <trkpt lat="42.89126" lon="-0.0198">
        <ele>659</ele>
        <time>2024-08-26T22:18:14.236Z</time>
      </trkpt>
      <trkpt lat="42.89159" lon="-0.01989">
        <ele>666.9</ele>
        <time>2024-08-26T22:18:49.124Z</time>
      </trkpt>
      <trkpt lat="42.89172" lon="-0.01996">
        <ele>668.7</ele>
        <time>2024-08-26T22:18:58.772Z</time>
      </trkpt>
      <trkpt lat="42.89178" lon="-0.02003">
        <ele>667.8</ele>
        <time>2024-08-26T22:19:01.874Z</time>
      </trkpt>
      <trkpt lat="42.89182" lon="-0.02011">
        <ele>666</ele>
        <time>2024-08-26T22:19:04.662Z</time>
      </trkpt>
      <trkpt lat="42.89199" lon="-0.02063">
        <ele>656.8</ele>
        <time>2024-08-26T22:19:21.054Z</time>
      </trkpt>
      <trkpt lat="42.89207" lon="-0.02075">
        <ele>655.2</ele>
        <time>2024-08-26T22:19:25.725Z</time>
      </trkpt>
      <trkpt lat="42.89212" lon="-0.02078">
        <ele>655.7</ele>
        <time>2024-08-26T22:19:29.031Z</time>
      </trkpt>
      <trkpt lat="42.89218" lon="-0.02079">
        <ele>657.1</ele>
        <time>2024-08-26T22:19:35.218Z</time>
      </trkpt>
      <trkpt lat="42.89263" lon="-0.02072">
        <ele>666.3</ele>
        <time>2024-08-26T22:20:16.611Z</time>
      </trkpt>
      <trkpt lat="42.89275" lon="-0.02073">
        <ele>667.2</ele>
        <time>2024-08-26T22:20:23.485Z</time>
      </trkpt>
      <trkpt lat="42.89302" lon="-0.02091">
        <ele>666.9</ele>
        <time>2024-08-26T22:20:36.572Z</time>
      </trkpt>
      <trkpt lat="42.89323" lon="-0.02102">
        <ele>668.5</ele>
        <time>2024-08-26T22:20:49.272Z</time>
      </trkpt>
      <trkpt lat="42.89326" lon="-0.02107">
        <ele>668.4</ele>
        <time>2024-08-26T22:20:51.266Z</time>
      </trkpt>
      <trkpt lat="42.89327" lon="-0.02113">
        <ele>667.9</ele>
        <time>2024-08-26T22:20:53.038Z</time>
      </trkpt>
      <trkpt lat="42.89319" lon="-0.02147">
        <ele>662.8</ele>
        <time>2024-08-26T22:21:03.317Z</time>
      </trkpt>
      <trkpt lat="42.8932" lon="-0.02163">
        <ele>660.6</ele>
        <time>2024-08-26T22:21:07.940Z</time>
      </trkpt>
      <trkpt lat="42.89323" lon="-0.02169">
        <ele>660.1</ele>
        <time>2024-08-26T22:21:10.031Z</time>
      </trkpt>
      <trkpt lat="42.89351" lon="-0.02186">
        <ele>661.3</ele>
        <time>2024-08-26T22:21:25.602Z</time>
      </trkpt>
      <trkpt lat="42.89378" lon="-0.02211">
        <ele>659.4</ele>
        <time>2024-08-26T22:21:38.422Z</time>
      </trkpt>
      <trkpt lat="42.8939" lon="-0.02219">
        <ele>658.4</ele>
        <time>2024-08-26T22:21:43.669Z</time>
      </trkpt>
      <trkpt lat="42.89412" lon="-0.0223">
        <ele>656.8</ele>
        <time>2024-08-26T22:21:52.875Z</time>
      </trkpt>
      <trkpt lat="42.89525" lon="-0.02275">
        <ele>655.4</ele>
        <time>2024-08-26T22:22:43.848Z</time>
      </trkpt>
      <trkpt lat="42.89589" lon="-0.02313">
        <ele>654.8</ele>
        <time>2024-08-26T22:23:14.375Z</time>
      </trkpt>
      <trkpt lat="42.89618" lon="-0.02327">
        <ele>660.9</ele>
        <time>2024-08-26T22:23:41.961Z</time>
      </trkpt>
      <trkpt lat="42.8964" lon="-0.02342">
        <ele>663.9</ele>
        <time>2024-08-26T22:23:58.529Z</time>
      </trkpt>
      <trkpt lat="42.89658" lon="-0.02359">
        <ele>663.8</ele>
        <time>2024-08-26T22:24:08.221Z</time>
      </trkpt>
      <trkpt lat="42.89696" lon="-0.02409">
        <ele>654.5</ele>
        <time>2024-08-26T22:24:28.960Z</time>
      </trkpt>
      <trkpt lat="42.89759" lon="-0.02459">
        <ele>660</ele>
        <time>2024-08-26T22:25:10.712Z</time>
      </trkpt>
      <trkpt lat="42.89775" lon="-0.02478">
        <ele>658.4</ele>
        <time>2024-08-26T22:25:19.045Z</time>
      </trkpt>
      <trkpt lat="42.89794" lon="-0.02505">
        <ele>654.4</ele>
        <time>2024-08-26T22:25:29.822Z</time>
      </trkpt>
      <trkpt lat="42.89814" lon="-0.02527">
        <ele>654.6</ele>
        <time>2024-08-26T22:25:41.637Z</time>
      </trkpt>
      <trkpt lat="42.89912" lon="-0.02607">
        <ele>660.4</ele>
        <time>2024-08-26T22:26:41.896Z</time>
      </trkpt>
      <trkpt lat="42.89932" lon="-0.02621">
        <ele>659.9</ele>
        <time>2024-08-26T22:26:51.330Z</time>
      </trkpt>
      <trkpt lat="42.89948" lon="-0.02627">
        <ele>660.9</ele>
        <time>2024-08-26T22:27:00.365Z</time>
      </trkpt>
      <trkpt lat="42.89962" lon="-0.02627">
        <ele>662.1</ele>
        <time>2024-08-26T22:27:08.670Z</time>
      </trkpt>
      <trkpt lat="42.89969" lon="-0.02624">
        <ele>664.2</ele>
        <time>2024-08-26T22:27:18.070Z</time>
      </trkpt>
      <trkpt lat="42.89993" lon="-0.02606">
        <ele>672.8</ele>
        <time>2024-08-26T22:27:57.474Z</time>
      </trkpt>
      <trkpt lat="42.90027" lon="-0.02585">
        <ele>682.2</ele>
        <time>2024-08-26T22:28:38.956Z</time>
      </trkpt>
      <trkpt lat="42.90036" lon="-0.02581">
        <ele>682.8</ele>
        <time>2024-08-26T22:28:44.163Z</time>
      </trkpt>
      <trkpt lat="42.90058" lon="-0.02576">
        <ele>681.5</ele>
        <time>2024-08-26T22:28:52.926Z</time>
      </trkpt>
      <trkpt lat="42.90077" lon="-0.02575">
        <ele>682.7</ele>
        <time>2024-08-26T22:29:03.377Z</time>
      </trkpt>
      <trkpt lat="42.90091" lon="-0.0257">
        <ele>689.8</ele>
        <time>2024-08-26T22:29:37.494Z</time>
      </trkpt>
      <trkpt lat="42.90102" lon="-0.0257">
        <ele>696.9</ele>
        <time>2024-08-26T22:30:03.427Z</time>
      </trkpt>
      <trkpt lat="42.90107" lon="-0.02573">
        <ele>699.1</ele>
        <time>2024-08-26T22:30:14.640Z</time>
      </trkpt>
      <trkpt lat="42.90111" lon="-0.02579">
        <ele>699.5</ele>
        <time>2024-08-26T22:30:17.953Z</time>
      </trkpt>
      <trkpt lat="42.90114" lon="-0.02593">
        <ele>698.6</ele>
        <time>2024-08-26T22:30:22.152Z</time>
      </trkpt>
      <trkpt lat="42.90113" lon="-0.02615">
        <ele>693.8</ele>
        <time>2024-08-26T22:30:28.496Z</time>
      </trkpt>
      <trkpt lat="42.90105" lon="-0.02647">
        <ele>685</ele>
        <time>2024-08-26T22:30:38.228Z</time>
      </trkpt>
      <trkpt lat="42.90106" lon="-0.02654">
        <ele>684.8</ele>
        <time>2024-08-26T22:30:40.319Z</time>
      </trkpt>
      <trkpt lat="42.90113" lon="-0.02664">
        <ele>687.1</ele>
        <time>2024-08-26T22:30:50.500Z</time>
      </trkpt>
      <trkpt lat="42.90159" lon="-0.02689">
        <ele>699.7</ele>
        <time>2024-08-26T22:31:46.125Z</time>
      </trkpt>
      <trkpt lat="42.90203" lon="-0.02716">
        <ele>708.2</ele>
        <time>2024-08-26T22:32:25.846Z</time>
      </trkpt>
      <trkpt lat="42.90306" lon="-0.02795">
        <ele>717.7</ele>
        <time>2024-08-26T22:33:34.680Z</time>
      </trkpt>
      <trkpt lat="42.90345" lon="-0.0282">
        <ele>726.3</ele>
        <time>2024-08-26T22:34:13.515Z</time>
      </trkpt>
      <trkpt lat="42.90379" lon="-0.02868">
        <ele>717.8</ele>
        <time>2024-08-26T22:34:32.734Z</time>
      </trkpt>
      <trkpt lat="42.90384" lon="-0.02872">
        <ele>718.3</ele>
        <time>2024-08-26T22:34:36.178Z</time>
      </trkpt>
      <trkpt lat="42.9039" lon="-0.02874">
        <ele>720.5</ele>
        <time>2024-08-26T22:34:46.756Z</time>
      </trkpt>
      <trkpt lat="42.90416" lon="-0.02878">
        <ele>729.8</ele>
        <time>2024-08-26T22:35:31.430Z</time>
      </trkpt>
      <trkpt lat="42.90431" lon="-0.02886">
        <ele>732</ele>
        <time>2024-08-26T22:35:42.869Z</time>
      </trkpt>
      <trkpt lat="42.90438" lon="-0.02892">
        <ele>732.3</ele>
        <time>2024-08-26T22:35:47.030Z</time>
      </trkpt>
      <trkpt lat="42.9048" lon="-0.02941">
        <ele>731.3</ele>
        <time>2024-08-26T22:36:10.509Z</time>
      </trkpt>
      <trkpt lat="42.90486" lon="-0.02944">
        <ele>732.6</ele>
        <time>2024-08-26T22:36:16.356Z</time>
      </trkpt>
      <trkpt lat="42.90489" lon="-0.02943">
        <ele>734.1</ele>
        <time>2024-08-26T22:36:23.637Z</time>
      </trkpt>
      <trkpt lat="42.90492" lon="-0.0294">
        <ele>736.3</ele>
        <time>2024-08-26T22:36:32.404Z</time>
      </trkpt>
      <trkpt lat="42.90493" lon="-0.02936">
        <ele>738</ele>
        <time>2024-08-26T22:36:39.702Z</time>
      </trkpt>
      <trkpt lat="42.90492" lon="-0.02931">
        <ele>739.3</ele>
        <time>2024-08-26T22:36:45.848Z</time>
      </trkpt>
      <trkpt lat="42.9049" lon="-0.02927">
        <ele>739.9</ele>
        <time>2024-08-26T22:36:48.692Z</time>
      </trkpt>
      <trkpt lat="42.90471" lon="-0.02907">
        <ele>740</ele>
        <time>2024-08-26T22:36:59.605Z</time>
      </trkpt>
      <trkpt lat="42.90446" lon="-0.02872">
        <ele>743.9</ele>
        <time>2024-08-26T22:37:22.634Z</time>
      </trkpt>
      <trkpt lat="42.90445" lon="-0.02865">
        <ele>746.5</ele>
        <time>2024-08-26T22:37:34.950Z</time>
      </trkpt>
      <trkpt lat="42.90447" lon="-0.0286">
        <ele>749.5</ele>
        <time>2024-08-26T22:37:44.788Z</time>
      </trkpt>
      <trkpt lat="42.90449" lon="-0.02859">
        <ele>750.7</ele>
        <time>2024-08-26T22:37:49.809Z</time>
      </trkpt>
      <trkpt lat="42.90456" lon="-0.02862">
        <ele>752.2</ele>
        <time>2024-08-26T22:37:56.549Z</time>
      </trkpt>
      <trkpt lat="42.90466" lon="-0.02877">
        <ele>749.7</ele>
        <time>2024-08-26T22:38:02.387Z</time>
      </trkpt>
      <trkpt lat="42.90475" lon="-0.02887">
        <ele>748.8</ele>
        <time>2024-08-26T22:38:06.946Z</time>
      </trkpt>
      <trkpt lat="42.90515" lon="-0.02921">
        <ele>749.9</ele>
        <time>2024-08-26T22:38:29.706Z</time>
      </trkpt>
      <trkpt lat="42.90529" lon="-0.02927">
        <ele>751.9</ele>
        <time>2024-08-26T22:38:40.117Z</time>
      </trkpt>
      <trkpt lat="42.90569" lon="-0.02934">
        <ele>758.8</ele>
        <time>2024-08-26T22:39:12.683Z</time>
      </trkpt>
      <trkpt lat="42.90625" lon="-0.02961">
        <ele>763.2</ele>
        <time>2024-08-26T22:39:46.551Z</time>
      </trkpt>
      <trkpt lat="42.90658" lon="-0.02988">
        <ele>761.9</ele>
        <time>2024-08-26T22:40:02.154Z</time>
      </trkpt>
      <trkpt lat="42.90665" lon="-0.02992">
        <ele>762</ele>
        <time>2024-08-26T22:40:05.704Z</time>
      </trkpt>
      <trkpt lat="42.90671" lon="-0.02994">
        <ele>762.4</ele>
        <time>2024-08-26T22:40:09.118Z</time>
      </trkpt>
      <trkpt lat="42.90685" lon="-0.02992">
        <ele>765.1</ele>
        <time>2024-08-26T22:40:21.426Z</time>
      </trkpt>
      <trkpt lat="42.90696" lon="-0.02993">
        <ele>766.5</ele>
        <time>2024-08-26T22:40:28.988Z</time>
      </trkpt>
      <trkpt lat="42.90702" lon="-0.02995">
        <ele>766.7</ele>
        <time>2024-08-26T22:40:32.059Z</time>
      </trkpt>
      <trkpt lat="42.90727" lon="-0.03011">
        <ele>766.2</ele>
        <time>2024-08-26T22:40:43.792Z</time>
      </trkpt>
      <trkpt lat="42.90731" lon="-0.03015">
        <ele>766.1</ele>
        <time>2024-08-26T22:40:45.887Z</time>
      </trkpt>
      <trkpt lat="42.90734" lon="-0.03027">
        <ele>764.1</ele>
        <time>2024-08-26T22:40:49.536Z</time>
      </trkpt>
      <trkpt lat="42.90728" lon="-0.0306">
        <ele>757.5</ele>
        <time>2024-08-26T22:40:59.321Z</time>
      </trkpt>
      <trkpt lat="42.90731" lon="-0.03078">
        <ele>756.9</ele>
        <time>2024-08-26T22:41:04.638Z</time>
      </trkpt>
      <trkpt lat="42.90741" lon="-0.03112">
        <ele>758.7</ele>
        <time>2024-08-26T22:41:19.585Z</time>
      </trkpt>
      <trkpt lat="42.90757" lon="-0.03146">
        <ele>759.9</ele>
        <time>2024-08-26T22:41:34.692Z</time>
      </trkpt>
      <trkpt lat="42.90769" lon="-0.03209">
        <ele>753.8</ele>
        <time>2024-08-26T22:41:53.427Z</time>
      </trkpt>
      <trkpt lat="42.90776" lon="-0.03228">
        <ele>752.5</ele>
        <time>2024-08-26T22:41:59.548Z</time>
      </trkpt>
      <trkpt lat="42.90791" lon="-0.03254">
        <ele>750.8</ele>
        <time>2024-08-26T22:42:09.073Z</time>
      </trkpt>
      <trkpt lat="42.90799" lon="-0.03264">
        <ele>750.1</ele>
        <time>2024-08-26T22:42:13.335Z</time>
      </trkpt>
      <trkpt lat="42.90812" lon="-0.03275">
        <ele>749.8</ele>
        <time>2024-08-26T22:42:19.805Z</time>
      </trkpt>
      <trkpt lat="42.90815" lon="-0.0328">
        <ele>749.2</ele>
        <time>2024-08-26T22:42:21.665Z</time>
      </trkpt>
      <trkpt lat="42.90816" lon="-0.03289">
        <ele>747.6</ele>
        <time>2024-08-26T22:42:24.285Z</time>
      </trkpt>
      <trkpt lat="42.90815" lon="-0.03294">
        <ele>746.4</ele>
        <time>2024-08-26T22:42:25.777Z</time>
      </trkpt>
      <trkpt lat="42.90812" lon="-0.03298">
        <ele>745</ele>
        <time>2024-08-26T22:42:27.424Z</time>
      </trkpt>
      <trkpt lat="42.90804" lon="-0.033">
        <ele>742.9</ele>
        <time>2024-08-26T22:42:30.620Z</time>
      </trkpt>
      <trkpt lat="42.90794" lon="-0.03296">
        <ele>741.6</ele>
        <time>2024-08-26T22:42:34.715Z</time>
      </trkpt>
      <trkpt lat="42.9075" lon="-0.03251">
        <ele>740.7</ele>
        <time>2024-08-26T22:42:58.201Z</time>
      </trkpt>
      <trkpt lat="42.90741" lon="-0.03244">
        <ele>739.7</ele>
        <time>2024-08-26T22:43:02.271Z</time>
      </trkpt>
      <trkpt lat="42.90724" lon="-0.03234">
        <ele>737</ele>
        <time>2024-08-26T22:43:09.544Z</time>
      </trkpt>
      <trkpt lat="42.90698" lon="-0.03224">
        <ele>729.9</ele>
        <time>2024-08-26T22:43:20.158Z</time>
      </trkpt>
      <trkpt lat="42.90687" lon="-0.03216">
        <ele>727.2</ele>
        <time>2024-08-26T22:43:25.055Z</time>
      </trkpt>
      <trkpt lat="42.90668" lon="-0.03192">
        <ele>724.7</ele>
        <time>2024-08-26T22:43:35.226Z</time>
      </trkpt>
      <trkpt lat="42.90655" lon="-0.03172">
        <ele>721.6</ele>
        <time>2024-08-26T22:43:42.922Z</time>
      </trkpt>
      <trkpt lat="42.9065" lon="-0.03155">
        <ele>722.2</ele>
        <time>2024-08-26T22:43:49.864Z</time>
      </trkpt>
      <trkpt lat="42.90648" lon="-0.03131">
        <ele>725.1</ele>
        <time>2024-08-26T22:44:03.768Z</time>
      </trkpt>
      <trkpt lat="42.90643" lon="-0.03123">
        <ele>724.9</ele>
        <time>2024-08-26T22:44:06.966Z</time>
      </trkpt>
      <trkpt lat="42.90638" lon="-0.03122">
        <ele>723.8</ele>
        <time>2024-08-26T22:44:08.951Z</time>
        <extensions>
          <visugpx:TrkExtension xmlns:visugpx="https://www.visugpx.com/editgpx/">
            <visugpx:node>5</visugpx:node>
            </visugpx:TrkExtension>
        </extensions>
      </trkpt>
      <trkpt lat="42.90635" lon="-0.03124">
        <ele>722.5</ele>
        <time>2024-08-26T22:44:10.263Z</time>
      </trkpt>
      <trkpt lat="42.90633" lon="-0.03128">
        <ele>721.1</ele>
        <time>2024-08-26T22:44:11.657Z</time>
      </trkpt>
      <trkpt lat="42.90632" lon="-0.0314">
        <ele>718.3</ele>
        <time>2024-08-26T22:44:15.133Z</time>
      </trkpt>
      <trkpt lat="42.90646" lon="-0.03187">
        <ele>715.5</ele>
        <time>2024-08-26T22:44:29.736Z</time>
      </trkpt>
      <trkpt lat="42.90661" lon="-0.03226">
        <ele>714</ele>
        <time>2024-08-26T22:44:42.414Z</time>
      </trkpt>
      <trkpt lat="42.90677" lon="-0.03256">
        <ele>712.8</ele>
        <time>2024-08-26T22:44:53.108Z</time>
      </trkpt>
      <trkpt lat="42.90718" lon="-0.03316">
        <ele>712.5</ele>
        <time>2024-08-26T22:45:19.687Z</time>
      </trkpt>
      <trkpt lat="42.90733" lon="-0.03346">
        <ele>709.3</ele>
        <time>2024-08-26T22:45:30.141Z</time>
      </trkpt>
      <trkpt lat="42.90749" lon="-0.03386">
        <ele>701.6</ele>
        <time>2024-08-26T22:45:43.258Z</time>
      </trkpt>
      <trkpt lat="42.90758" lon="-0.03404">
        <ele>696.7</ele>
        <time>2024-08-26T22:45:49.530Z</time>
      </trkpt>
      <trkpt lat="42.90763" lon="-0.03411">
        <ele>695.4</ele>
        <time>2024-08-26T22:45:52.344Z</time>
      </trkpt>
      <trkpt lat="42.90775" lon="-0.03422">
        <ele>694.5</ele>
        <time>2024-08-26T22:45:58.024Z</time>
      </trkpt>
      <trkpt lat="42.90805" lon="-0.0344">
        <ele>694.4</ele>
        <time>2024-08-26T22:46:12.602Z</time>
      </trkpt>
      <trkpt lat="42.90905" lon="-0.03525">
        <ele>675.1</ele>
        <time>2024-08-26T22:46:58.887Z</time>
      </trkpt>
      <trkpt lat="42.90944" lon="-0.03567">
        <ele>667</ele>
        <time>2024-08-26T22:47:18.405Z</time>
      </trkpt>
      <trkpt lat="42.90958" lon="-0.03573">
        <ele>668</ele>
        <time>2024-08-26T22:47:26.607Z</time>
      </trkpt>
      <trkpt lat="42.90989" lon="-0.03574">
        <ele>677.2</ele>
        <time>2024-08-26T22:48:08.106Z</time>
      </trkpt>
      <trkpt lat="42.91007" lon="-0.03578">
        <ele>678.6</ele>
        <time>2024-08-26T22:48:18.600Z</time>
      </trkpt>
      <trkpt lat="42.91014" lon="-0.03582">
        <ele>676.7</ele>
        <time>2024-08-26T22:48:21.582Z</time>
      </trkpt>
      <trkpt lat="42.91042" lon="-0.03607">
        <ele>662.5</ele>
        <time>2024-08-26T22:48:34.727Z</time>
      </trkpt>
      <trkpt lat="42.91106" lon="-0.03636">
        <ele>655.8</ele>
        <time>2024-08-26T22:49:01.224Z</time>
      </trkpt>
      <trkpt lat="42.91121" lon="-0.03648">
        <ele>650.4</ele>
        <time>2024-08-26T22:49:08.055Z</time>
      </trkpt>
      <trkpt lat="42.91136" lon="-0.03664">
        <ele>640.7</ele>
        <time>2024-08-26T22:49:15.534Z</time>
      </trkpt>
      <trkpt lat="42.91154" lon="-0.03679">
        <ele>632.5</ele>
        <time>2024-08-26T22:49:23.820Z</time>
      </trkpt>
      <trkpt lat="42.91212" lon="-0.0371">
        <ele>616.5</ele>
        <time>2024-08-26T22:49:48.294Z</time>
      </trkpt>
      <trkpt lat="42.9123" lon="-0.03718">
        <ele>612.7</ele>
        <time>2024-08-26T22:49:55.732Z</time>
      </trkpt>
      <trkpt lat="42.9124" lon="-0.0372">
        <ele>612</ele>
        <time>2024-08-26T22:49:59.703Z</time>
      </trkpt>
      <trkpt lat="42.91256" lon="-0.03719">
        <ele>613.8</ele>
        <time>2024-08-26T22:50:10.130Z</time>
      </trkpt>
      <trkpt lat="42.91296" lon="-0.03707">
        <ele>622.1</ele>
        <time>2024-08-26T22:50:47.491Z</time>
      </trkpt>
      <trkpt lat="42.91333" lon="-0.03702">
        <ele>620.3</ele>
        <time>2024-08-26T22:51:02.100Z</time>
      </trkpt>
      <trkpt lat="42.91381" lon="-0.03684">
        <ele>628.1</ele>
        <time>2024-08-26T22:51:40.177Z</time>
      </trkpt>
      <trkpt lat="42.91397" lon="-0.03685">
        <ele>626.1</ele>
        <time>2024-08-26T22:51:46.470Z</time>
      </trkpt>
      <trkpt lat="42.91405" lon="-0.03688">
        <ele>623.5</ele>
        <time>2024-08-26T22:51:49.730Z</time>
      </trkpt>
      <trkpt lat="42.91418" lon="-0.03697">
        <ele>616.7</ele>
        <time>2024-08-26T22:51:55.457Z</time>
      </trkpt>
      <trkpt lat="42.91431" lon="-0.03711">
        <ele>610.8</ele>
        <time>2024-08-26T22:52:01.963Z</time>
      </trkpt>
      <trkpt lat="42.91402" lon="-0.03698">
        <ele>614.6</ele>
        <time>2024-08-26T22:52:22.712Z</time>
      </trkpt>
      <trkpt lat="42.91391" lon="-0.03696">
        <ele>615.1</ele>
        <time>2024-08-26T22:52:28.459Z</time>
        <extensions>
          <visugpx:TrkExtension xmlns:visugpx="https://www.visugpx.com/editgpx/">
            <visugpx:node>6</visugpx:node>
            </visugpx:TrkExtension>
        </extensions>
      </trkpt>
      <trkpt lat="42.91402" lon="-0.03698">
        <ele>614.6</ele>
        <time>2024-08-26T22:52:32.820Z</time>
      </trkpt>
      <trkpt lat="42.91431" lon="-0.03711">
        <ele>610.8</ele>
        <time>2024-08-26T22:52:44.813Z</time>
      </trkpt>
      <trkpt lat="42.9153" lon="-0.03765">
        <ele>613.7</ele>
        <time>2024-08-26T22:53:36.942Z</time>
      </trkpt>
      <trkpt lat="42.91626" lon="-0.03814">
        <ele>621</ele>
        <time>2024-08-26T22:54:34.827Z</time>
      </trkpt>
      <trkpt lat="42.91638" lon="-0.03823">
        <ele>620.7</ele>
        <time>2024-08-26T22:54:40.579Z</time>
      </trkpt>
      <trkpt lat="42.91649" lon="-0.03835">
        <ele>617.5</ele>
        <time>2024-08-26T22:54:46.111Z</time>
      </trkpt>
      <trkpt lat="42.91729" lon="-0.03964">
        <ele>596.7</ele>
        <time>2024-08-26T22:55:34.753Z</time>
      </trkpt>
      <trkpt lat="42.91742" lon="-0.03979">
        <ele>594.5</ele>
        <time>2024-08-26T22:55:41.441Z</time>
      </trkpt>
      <trkpt lat="42.91752" lon="-0.03986">
        <ele>594.6</ele>
        <time>2024-08-26T22:55:46.628Z</time>
      </trkpt>
      <trkpt lat="42.91759" lon="-0.03988">
        <ele>595.7</ele>
        <time>2024-08-26T22:55:52.040Z</time>
      </trkpt>
      <trkpt lat="42.91797" lon="-0.03988">
        <ele>605.3</ele>
        <time>2024-08-26T22:56:34.409Z</time>
      </trkpt>
      <trkpt lat="42.91811" lon="-0.03992">
        <ele>607</ele>
        <time>2024-08-26T22:56:43.937Z</time>
      </trkpt>
      <trkpt lat="42.91826" lon="-0.04004">
        <ele>606</ele>
        <time>2024-08-26T22:56:50.768Z</time>
      </trkpt>
      <trkpt lat="42.91853" lon="-0.04034">
        <ele>598.6</ele>
        <time>2024-08-26T22:57:04.446Z</time>
      </trkpt>
      <trkpt lat="42.91861" lon="-0.04039">
        <ele>597.5</ele>
        <time>2024-08-26T22:57:07.903Z</time>
      </trkpt>
      <trkpt lat="42.91874" lon="-0.0404">
        <ele>598.1</ele>
        <time>2024-08-26T22:57:14.669Z</time>
      </trkpt>
      <trkpt lat="42.91881" lon="-0.04038">
        <ele>599.4</ele>
        <time>2024-08-26T22:57:20.685Z</time>
      </trkpt>
      <trkpt lat="42.91915" lon="-0.04021">
        <ele>606.9</ele>
        <time>2024-08-26T22:57:54.302Z</time>
      </trkpt>
      <trkpt lat="42.91924" lon="-0.04018">
        <ele>608</ele>
        <time>2024-08-26T22:58:00.471Z</time>
      </trkpt>
      <trkpt lat="42.91938" lon="-0.04019">
        <ele>607</ele>
        <time>2024-08-26T22:58:05.979Z</time>
      </trkpt>
      <trkpt lat="42.91962" lon="-0.04026">
        <ele>604.4</ele>
        <time>2024-08-26T22:58:15.622Z</time>
      </trkpt>
      <trkpt lat="42.91974" lon="-0.04027">
        <ele>604.8</ele>
        <time>2024-08-26T22:58:21.616Z</time>
      </trkpt>
      <trkpt lat="42.91997" lon="-0.04023">
        <ele>613</ele>
        <time>2024-08-26T22:59:00.919Z</time>
      </trkpt>
      <trkpt lat="42.92004" lon="-0.04024">
        <ele>616.4</ele>
        <time>2024-08-26T22:59:17.512Z</time>
      </trkpt>
      <trkpt lat="42.92017" lon="-0.0403">
        <ele>623</ele>
        <time>2024-08-26T22:59:49.863Z</time>
      </trkpt>
      <trkpt lat="42.9203" lon="-0.04045">
        <ele>622.8</ele>
        <time>2024-08-26T22:59:57.237Z</time>
      </trkpt>
      <trkpt lat="42.92048" lon="-0.0407">
        <ele>616.3</ele>
        <time>2024-08-26T23:00:07.325Z</time>
      </trkpt>
      <trkpt lat="42.92053" lon="-0.04075">
        <ele>615.1</ele>
        <time>2024-08-26T23:00:09.760Z</time>
      </trkpt>
      <trkpt lat="42.92069" lon="-0.04085">
        <ele>612.5</ele>
        <time>2024-08-26T23:00:16.674Z</time>
      </trkpt>
      <trkpt lat="42.92082" lon="-0.04091">
        <ele>610.8</ele>
        <time>2024-08-26T23:00:22.066Z</time>
      </trkpt>
      <trkpt lat="42.92099" lon="-0.04095">
        <ele>608.2</ele>
        <time>2024-08-26T23:00:28.844Z</time>
      </trkpt>
      <trkpt lat="42.92152" lon="-0.041">
        <ele>596.6</ele>
        <time>2024-08-26T23:00:49.719Z</time>
      </trkpt>
      <trkpt lat="42.92162" lon="-0.04099">
        <ele>595.8</ele>
        <time>2024-08-26T23:00:53.658Z</time>
      </trkpt>
      <trkpt lat="42.92171" lon="-0.04096">
        <ele>597.5</ele>
        <time>2024-08-26T23:01:01.503Z</time>
      </trkpt>
      <trkpt lat="42.92212" lon="-0.04078">
        <ele>605.4</ele>
        <time>2024-08-26T23:01:37.961Z</time>
      </trkpt>
      <trkpt lat="42.92254" lon="-0.04076">
        <ele>595.7</ele>
        <time>2024-08-26T23:01:54.474Z</time>
      </trkpt>
      <trkpt lat="42.92287" lon="-0.04069">
        <ele>595.2</ele>
        <time>2024-08-26T23:02:08.802Z</time>
      </trkpt>
      <trkpt lat="42.92301" lon="-0.04072">
        <ele>590.9</ele>
        <time>2024-08-26T23:02:14.370Z</time>
      </trkpt>
      <trkpt lat="42.92334" lon="-0.04084">
        <ele>580.6</ele>
        <time>2024-08-26T23:02:27.788Z</time>
      </trkpt>
      <trkpt lat="42.9235" lon="-0.04087">
        <ele>580.2</ele>
        <time>2024-08-26T23:02:34.516Z</time>
      </trkpt>
      <trkpt lat="42.9236" lon="-0.04087">
        <ele>581.4</ele>
        <time>2024-08-26T23:02:41.205Z</time>
      </trkpt>
      <trkpt lat="42.92393" lon="-0.0408">
        <ele>593.6</ele>
        <time>2024-08-26T23:03:40.544Z</time>
      </trkpt>
      <trkpt lat="42.92406" lon="-0.04085">
        <ele>594.4</ele>
        <time>2024-08-26T23:03:47.873Z</time>
      </trkpt>
      <trkpt lat="42.92412" lon="-0.0409">
        <ele>592.8</ele>
        <time>2024-08-26T23:03:50.635Z</time>
      </trkpt>
      <trkpt lat="42.9245" lon="-0.04135">
        <ele>579</ele>
        <time>2024-08-26T23:04:10.398Z</time>
      </trkpt>
      <trkpt lat="42.9249" lon="-0.04172">
        <ele>574.9</ele>
        <time>2024-08-26T23:04:29.381Z</time>
      </trkpt>
      <trkpt lat="42.92522" lon="-0.04197">
        <ele>569.7</ele>
        <time>2024-08-26T23:04:43.867Z</time>
      </trkpt>
      <trkpt lat="42.92544" lon="-0.04211">
        <ele>565.2</ele>
        <time>2024-08-26T23:04:53.403Z</time>
      </trkpt>
      <trkpt lat="42.92562" lon="-0.04213">
        <ele>564.7</ele>
        <time>2024-08-26T23:05:00.861Z</time>
      </trkpt>
      <trkpt lat="42.92571" lon="-0.04211">
        <ele>564.9</ele>
        <time>2024-08-26T23:05:05.246Z</time>
      </trkpt>
      <trkpt lat="42.92578" lon="-0.04207">
        <ele>566.3</ele>
        <time>2024-08-26T23:05:11.696Z</time>
      </trkpt>
      <trkpt lat="42.92586" lon="-0.04199">
        <ele>569.3</ele>
        <time>2024-08-26T23:05:25.295Z</time>
      </trkpt>
      <trkpt lat="42.92605" lon="-0.04173">
        <ele>582.1</ele>
        <time>2024-08-26T23:06:28.707Z</time>
      </trkpt>
      <trkpt lat="42.92612" lon="-0.04166">
        <ele>584.4</ele>
        <time>2024-08-26T23:06:38.889Z</time>
      </trkpt>
      <trkpt lat="42.92623" lon="-0.0416">
        <ele>587.3</ele>
        <time>2024-08-26T23:06:51.681Z</time>
      </trkpt>
      <trkpt lat="42.92631" lon="-0.04159">
        <ele>587</ele>
        <time>2024-08-26T23:06:54.906Z</time>
      </trkpt>
      <trkpt lat="42.92686" lon="-0.04164">
        <ele>584.1</ele>
        <time>2024-08-26T23:07:16.564Z</time>
      </trkpt>
      <trkpt lat="42.927" lon="-0.04166">
        <ele>584.2</ele>
        <time>2024-08-26T23:07:23.026Z</time>
      </trkpt>
      <trkpt lat="42.92722" lon="-0.04172">
        <ele>583.5</ele>
        <time>2024-08-26T23:07:32.194Z</time>
      </trkpt>
      <trkpt lat="42.92777" lon="-0.04191">
        <ele>577.2</ele>
        <time>2024-08-26T23:07:54.486Z</time>
      </trkpt>
      <trkpt lat="42.92831" lon="-0.04218">
        <ele>577.6</ele>
        <time>2024-08-26T23:08:20.871Z</time>
      </trkpt>
      <trkpt lat="42.92853" lon="-0.04233">
        <ele>574.6</ele>
        <time>2024-08-26T23:08:30.532Z</time>
      </trkpt>
      <trkpt lat="42.92882" lon="-0.04261">
        <ele>568.6</ele>
        <time>2024-08-26T23:08:44.487Z</time>
      </trkpt>
      <trkpt lat="42.92902" lon="-0.04285">
        <ele>564.4</ele>
        <time>2024-08-26T23:08:54.948Z</time>
      </trkpt>
      <trkpt lat="42.92939" lon="-0.04336">
        <ele>558.2</ele>
        <time>2024-08-26T23:09:15.604Z</time>
      </trkpt>
      <trkpt lat="42.92964" lon="-0.04367">
        <ele>559.6</ele>
        <time>2024-08-26T23:09:32.889Z</time>
      </trkpt>
      <trkpt lat="42.92973" lon="-0.04384">
        <ele>556.9</ele>
        <time>2024-08-26T23:09:38.925Z</time>
      </trkpt>
      <trkpt lat="42.92986" lon="-0.04433">
        <ele>545.3</ele>
        <time>2024-08-26T23:09:53.919Z</time>
      </trkpt>
      <trkpt lat="42.9301" lon="-0.04492">
        <ele>535.9</ele>
        <time>2024-08-26T23:10:13.337Z</time>
      </trkpt>
      <trkpt lat="42.93022" lon="-0.04517">
        <ele>534.4</ele>
        <time>2024-08-26T23:10:21.937Z</time>
      </trkpt>
      <trkpt lat="42.93029" lon="-0.04529">
        <ele>533.5</ele>
        <time>2024-08-26T23:10:26.351Z</time>
      </trkpt>
      <trkpt lat="42.93067" lon="-0.0458">
        <ele>535.4</ele>
        <time>2024-08-26T23:10:53.117Z</time>
      </trkpt>
      <trkpt lat="42.93079" lon="-0.04593">
        <ele>534.8</ele>
        <time>2024-08-26T23:10:59.231Z</time>
      </trkpt>
      <trkpt lat="42.93089" lon="-0.04601">
        <ele>534.5</ele>
        <time>2024-08-26T23:11:04.043Z</time>
      </trkpt>
      <trkpt lat="42.93106" lon="-0.0461">
        <ele>534.4</ele>
        <time>2024-08-26T23:11:12.094Z</time>
      </trkpt>
      <trkpt lat="42.93113" lon="-0.04611">
        <ele>535.3</ele>
        <time>2024-08-26T23:11:16.937Z</time>
      </trkpt>
      <trkpt lat="42.93165" lon="-0.04607">
        <ele>542.4</ele>
        <time>2024-08-26T23:11:53.891Z</time>
      </trkpt>
      <trkpt lat="42.93205" lon="-0.04615">
        <ele>544.9</ele>
        <time>2024-08-26T23:12:16.018Z</time>
      </trkpt>
      <trkpt lat="42.93218" lon="-0.0462">
        <ele>545.4</ele>
        <time>2024-08-26T23:12:22.833Z</time>
      </trkpt>
      <trkpt lat="42.93265" lon="-0.04649">
        <ele>537.8</ele>
        <time>2024-08-26T23:12:43.098Z</time>
      </trkpt>
      <trkpt lat="42.93307" lon="-0.04667">
        <ele>539.1</ele>
        <time>2024-08-26T23:13:04.783Z</time>
      </trkpt>
      <trkpt lat="42.93319" lon="-0.04674">
        <ele>544.4</ele>
        <time>2024-08-26T23:13:31.902Z</time>
      </trkpt>
      <trkpt lat="42.93378" lon="-0.0472">
        <ele>553</ele>
        <time>2024-08-26T23:14:18.434Z</time>
      </trkpt>
      <trkpt lat="42.93401" lon="-0.0474">
        <ele>553.5</ele>
        <time>2024-08-26T23:14:31.397Z</time>
      </trkpt>
      <trkpt lat="42.93426" lon="-0.04767">
        <ele>552.3</ele>
        <time>2024-08-26T23:14:44.177Z</time>
      </trkpt>
      <trkpt lat="42.93438" lon="-0.04785">
        <ele>550.2</ele>
        <time>2024-08-26T23:14:51.180Z</time>
      </trkpt>
      <trkpt lat="42.9346" lon="-0.04847">
        <ele>525.5</ele>
        <time>2024-08-26T23:15:11.000Z</time>
      </trkpt>
      <trkpt lat="42.9347" lon="-0.04861">
        <ele>521.3</ele>
        <time>2024-08-26T23:15:16.627Z</time>
      </trkpt>
      <trkpt lat="42.93476" lon="-0.04866">
        <ele>520.8</ele>
        <time>2024-08-26T23:15:19.389Z</time>
      </trkpt>
      <trkpt lat="42.93485" lon="-0.0487">
        <ele>521</ele>
        <time>2024-08-26T23:15:23.928Z</time>
      </trkpt>
      <trkpt lat="42.935" lon="-0.0487">
        <ele>524.2</ele>
        <time>2024-08-26T23:15:38.200Z</time>
      </trkpt>
      <trkpt lat="42.93586" lon="-0.04847">
        <ele>526.4</ele>
        <time>2024-08-26T23:16:20.767Z</time>
      </trkpt>
      <trkpt lat="42.93608" lon="-0.04846">
        <ele>525.3</ele>
        <time>2024-08-26T23:16:29.416Z</time>
      </trkpt>
      <trkpt lat="42.93627" lon="-0.04847">
        <ele>523.9</ele>
        <time>2024-08-26T23:16:36.887Z</time>
      </trkpt>
      <trkpt lat="42.93652" lon="-0.04851">
        <ele>523.3</ele>
        <time>2024-08-26T23:16:47.402Z</time>
      </trkpt>
      <trkpt lat="42.93664" lon="-0.04858">
        <ele>520.7</ele>
        <time>2024-08-26T23:16:52.529Z</time>
      </trkpt>
      <trkpt lat="42.93675" lon="-0.0487">
        <ele>518.9</ele>
        <time>2024-08-26T23:16:58.060Z</time>
        <extensions>
          <visugpx:TrkExtension xmlns:visugpx="https://www.visugpx.com/editgpx/">
            <visugpx:node>7</visugpx:node>
            </visugpx:TrkExtension>
        </extensions>
      </trkpt>
      <trkpt lat="42.93684" lon="-0.04885">
        <ele>516.2</ele>
        <time>2024-08-26T23:17:03.639Z</time>
      </trkpt>
      <trkpt lat="42.93694" lon="-0.04909">
        <ele>512.1</ele>
        <time>2024-08-26T23:17:11.583Z</time>
      </trkpt>
      <trkpt lat="42.93703" lon="-0.04926">
        <ele>511</ele>
        <time>2024-08-26T23:17:17.618Z</time>
      </trkpt>
      <trkpt lat="42.93722" lon="-0.04945">
        <ele>510.8</ele>
        <time>2024-08-26T23:17:27.921Z</time>
      </trkpt>
      <trkpt lat="42.93749" lon="-0.04962">
        <ele>512.6</ele>
        <time>2024-08-26T23:17:44.123Z</time>
      </trkpt>
      <trkpt lat="42.93794" lon="-0.04985">
        <ele>517.3</ele>
        <time>2024-08-26T23:18:13.845Z</time>
      </trkpt>
      <trkpt lat="42.9387" lon="-0.05027">
        <ele>517.6</ele>
        <time>2024-08-26T23:18:51.079Z</time>
      </trkpt>
      <trkpt lat="42.93883" lon="-0.05036">
        <ele>517.5</ele>
        <time>2024-08-26T23:18:57.488Z</time>
      </trkpt>
      <trkpt lat="42.93894" lon="-0.05048">
        <ele>516.5</ele>
        <time>2024-08-26T23:19:03.019Z</time>
      </trkpt>
      <trkpt lat="42.93907" lon="-0.05066">
        <ele>514.7</ele>
        <time>2024-08-26T23:19:10.292Z</time>
      </trkpt>
      <trkpt lat="42.93926" lon="-0.05096">
        <ele>513.5</ele>
        <time>2024-08-26T23:19:21.812Z</time>
      </trkpt>
      <trkpt lat="42.93931" lon="-0.05108">
        <ele>512.5</ele>
        <time>2024-08-26T23:19:25.784Z</time>
      </trkpt>
      <trkpt lat="42.9394" lon="-0.0514">
        <ele>509.4</ele>
        <time>2024-08-26T23:19:35.645Z</time>
      </trkpt>
      <trkpt lat="42.93952" lon="-0.05205">
        <ele>506.5</ele>
        <time>2024-08-26T23:19:54.928Z</time>
      </trkpt>
      <trkpt lat="42.93964" lon="-0.05248">
        <ele>503.8</ele>
        <time>2024-08-26T23:20:08.165Z</time>
      </trkpt>
      <trkpt lat="42.93983" lon="-0.05297">
        <ele>501.8</ele>
        <time>2024-08-26T23:20:24.115Z</time>
      </trkpt>
      <trkpt lat="42.93988" lon="-0.05306">
        <ele>501.1</ele>
        <time>2024-08-26T23:20:27.365Z</time>
      </trkpt>
      <trkpt lat="42.93999" lon="-0.05319">
        <ele>500.5</ele>
        <time>2024-08-26T23:20:33.136Z</time>
      </trkpt>
      <trkpt lat="42.94012" lon="-0.05327">
        <ele>499.9</ele>
        <time>2024-08-26T23:20:38.779Z</time>
      </trkpt>
      <trkpt lat="42.9402" lon="-0.0533">
        <ele>499.5</ele>
        <time>2024-08-26T23:20:42.039Z</time>
      </trkpt>
      <trkpt lat="42.94039" lon="-0.05329">
        <ele>499</ele>
        <time>2024-08-26T23:20:49.924Z</time>
      </trkpt>
      <trkpt lat="42.94047" lon="-0.05325">
        <ele>499.1</ele>
        <time>2024-08-26T23:20:53.891Z</time>
      </trkpt>
      <trkpt lat="42.94054" lon="-0.0532">
        <ele>499.5</ele>
        <time>2024-08-26T23:20:58.058Z</time>
      </trkpt>
      <trkpt lat="42.9409" lon="-0.05278">
        <ele>498.5</ele>
        <time>2024-08-26T23:21:17.996Z</time>
      </trkpt>
      <trkpt lat="42.94131" lon="-0.05235">
        <ele>496.8</ele>
        <time>2024-08-26T23:21:39.016Z</time>
      </trkpt>
      <trkpt lat="42.94149" lon="-0.05221">
        <ele>496.4</ele>
        <time>2024-08-26T23:21:47.787Z</time>
      </trkpt>
      <trkpt lat="42.94158" lon="-0.05215">
        <ele>497.8</ele>
        <time>2024-08-26T23:21:54.983Z</time>
      </trkpt>
      <trkpt lat="42.94174" lon="-0.05211">
        <ele>498.6</ele>
        <time>2024-08-26T23:22:03.522Z</time>
      </trkpt>
      <trkpt lat="42.94181" lon="-0.05211">
        <ele>499.2</ele>
        <time>2024-08-26T23:22:07.675Z</time>
      </trkpt>
      <trkpt lat="42.94199" lon="-0.05216">
        <ele>500.7</ele>
        <time>2024-08-26T23:22:18.422Z</time>
      </trkpt>
      <trkpt lat="42.94219" lon="-0.05231">
        <ele>501.1</ele>
        <time>2024-08-26T23:22:29.243Z</time>
      </trkpt>
      <trkpt lat="42.94269" lon="-0.05287">
        <ele>503.9</ele>
        <time>2024-08-26T23:23:02.540Z</time>
      </trkpt>
      <trkpt lat="42.94278" lon="-0.05295">
        <ele>502.7</ele>
        <time>2024-08-26T23:23:06.759Z</time>
      </trkpt>
      <trkpt lat="42.94372" lon="-0.05354">
        <ele>499.4</ele>
        <time>2024-08-26T23:23:48.948Z</time>
      </trkpt>
      <trkpt lat="42.94389" lon="-0.05367">
        <ele>498.6</ele>
        <time>2024-08-26T23:23:56.683Z</time>
      </trkpt>
      <trkpt lat="42.94406" lon="-0.05383">
        <ele>499.8</ele>
        <time>2024-08-26T23:24:07.844Z</time>
      </trkpt>
      <trkpt lat="42.94455" lon="-0.05436">
        <ele>499.6</ele>
        <time>2024-08-26T23:24:35.635Z</time>
      </trkpt>
      <trkpt lat="42.94526" lon="-0.05525">
        <ele>496.5</ele>
        <time>2024-08-26T23:25:14.903Z</time>
      </trkpt>
      <trkpt lat="42.94599" lon="-0.0561">
        <ele>495.2</ele>
        <time>2024-08-26T23:25:56.231Z</time>
      </trkpt>
      <trkpt lat="42.94649" lon="-0.05665">
        <ele>495</ele>
        <time>2024-08-26T23:26:24.783Z</time>
      </trkpt>
      <trkpt lat="42.94664" lon="-0.05685">
        <ele>493.6</ele>
        <time>2024-08-26T23:26:33.019Z</time>
      </trkpt>
      <trkpt lat="42.94681" lon="-0.05716">
        <ele>495.8</ele>
        <time>2024-08-26T23:26:49.381Z</time>
      </trkpt>
      <trkpt lat="42.94688" lon="-0.05734">
        <ele>494.3</ele>
        <time>2024-08-26T23:26:55.243Z</time>
      </trkpt>
      <trkpt lat="42.94702" lon="-0.05788">
        <ele>498.6</ele>
        <time>2024-08-26T23:27:21.614Z</time>
      </trkpt>
      <trkpt lat="42.94719" lon="-0.05876">
        <ele>490.9</ele>
        <time>2024-08-26T23:27:47.791Z</time>
      </trkpt>
      <trkpt lat="42.94745" lon="-0.05949">
        <ele>488.8</ele>
        <time>2024-08-26T23:28:11.781Z</time>
      </trkpt>
      <trkpt lat="42.94761" lon="-0.05984">
        <ele>490.1</ele>
        <time>2024-08-26T23:28:27.323Z</time>
      </trkpt>
      <trkpt lat="42.94809" lon="-0.06062">
        <ele>489.9</ele>
        <time>2024-08-26T23:29:00.543Z</time>
      </trkpt>
      <trkpt lat="42.94849" lon="-0.06138">
        <ele>494.1</ele>
        <time>2024-08-26T23:29:37.978Z</time>
      </trkpt>
      <trkpt lat="42.94893" lon="-0.0623">
        <ele>485.8</ele>
        <time>2024-08-26T23:30:09.585Z</time>
      </trkpt>
      <trkpt lat="42.94934" lon="-0.06301">
        <ele>484.9</ele>
        <time>2024-08-26T23:30:38.102Z</time>
      </trkpt>
      <trkpt lat="42.94955" lon="-0.06344">
        <ele>484.8</ele>
        <time>2024-08-26T23:30:54.956Z</time>
      </trkpt>
      <trkpt lat="42.94985" lon="-0.06423">
        <ele>485.8</ele>
        <time>2024-08-26T23:31:25.639Z</time>
      </trkpt>
      <trkpt lat="42.94993" lon="-0.06448">
        <ele>481.1</ele>
        <time>2024-08-26T23:31:33.486Z</time>
      </trkpt>
      <trkpt lat="42.95041" lon="-0.06676">
        <ele>486.3</ele>
        <time>2024-08-26T23:32:59.144Z</time>
      </trkpt>
      <trkpt lat="42.95052" lon="-0.06717">
        <ele>480.9</ele>
        <time>2024-08-26T23:33:11.703Z</time>
      </trkpt>
      <trkpt lat="42.95057" lon="-0.06729">
        <ele>479.8</ele>
        <time>2024-08-26T23:33:15.674Z</time>
      </trkpt>
      <trkpt lat="42.9507" lon="-0.06745">
        <ele>479.6</ele>
        <time>2024-08-26T23:33:23.261Z</time>
      </trkpt>
      <trkpt lat="42.95075" lon="-0.06736">
        <ele>479.9</ele>
        <time>2024-08-26T23:33:27.424Z</time>
      </trkpt>
      <trkpt lat="42.95082" lon="-0.0673">
        <ele>480</ele>
        <time>2024-08-26T23:33:31.277Z</time>
      </trkpt>
      <trkpt lat="42.95086" lon="-0.06729">
        <ele>479.8</ele>
        <time>2024-08-26T23:33:32.875Z</time>
      </trkpt>
      <trkpt lat="42.95095" lon="-0.0673">
        <ele>479.3</ele>
        <time>2024-08-26T23:33:36.423Z</time>
      </trkpt>
      <trkpt lat="42.95102" lon="-0.06736">
        <ele>479</ele>
        <time>2024-08-26T23:33:39.750Z</time>
      </trkpt>
      <trkpt lat="42.95104" lon="-0.0674">
        <ele>479</ele>
        <time>2024-08-26T23:33:41.342Z</time>
      </trkpt>
      <trkpt lat="42.95107" lon="-0.06751">
        <ele>479.1</ele>
        <time>2024-08-26T23:33:45.342Z</time>
      </trkpt>
      <trkpt lat="42.95106" lon="-0.06762">
        <ele>478.8</ele>
        <time>2024-08-26T23:33:48.602Z</time>
      </trkpt>
      <trkpt lat="42.95101" lon="-0.06772">
        <ele>478.6</ele>
        <time>2024-08-26T23:33:52.319Z</time>
      </trkpt>
      <trkpt lat="42.9509" lon="-0.06779">
        <ele>478.7</ele>
        <time>2024-08-26T23:33:57.909Z</time>
      </trkpt>
      <trkpt lat="42.951" lon="-0.06811">
        <ele>478.6</ele>
        <time>2024-08-26T23:34:09.208Z</time>
      </trkpt>
      <trkpt lat="42.95122" lon="-0.06849">
        <ele>477.9</ele>
        <time>2024-08-26T23:34:24.205Z</time>
      </trkpt>
      <trkpt lat="42.95137" lon="-0.06887">
        <ele>480.4</ele>
        <time>2024-08-26T23:34:42.535Z</time>
        <extensions>
          <visugpx:TrkExtension xmlns:visugpx="https://www.visugpx.com/editgpx/">
            <visugpx:node>8</visugpx:node>
            </visugpx:TrkExtension>
        </extensions>
      </trkpt>
      <trkpt lat="42.95159" lon="-0.0695">
        <ele>479.4</ele>
        <time>2024-08-26T23:35:04.152Z</time>
      </trkpt>
      <trkpt lat="42.9517" lon="-0.06965">
        <ele>480.8</ele>
        <time>2024-08-26T23:35:13.512Z</time>
      </trkpt>
      <trkpt lat="42.9518" lon="-0.06973">
        <ele>481.2</ele>
        <time>2024-08-26T23:35:19.313Z</time>
      </trkpt>
      <trkpt lat="42.95206" lon="-0.06984">
        <ele>482.8</ele>
        <time>2024-08-26T23:35:34.060Z</time>
      </trkpt>
      <trkpt lat="42.95244" lon="-0.06988">
        <ele>480.3</ele>
        <time>2024-08-26T23:35:49.035Z</time>
      </trkpt>
      <trkpt lat="42.95276" lon="-0.07001">
        <ele>476.8</ele>
        <time>2024-08-26T23:36:02.153Z</time>
      </trkpt>
      <trkpt lat="42.95317" lon="-0.07021">
        <ele>476.6</ele>
        <time>2024-08-26T23:36:21.429Z</time>
      </trkpt>
      <trkpt lat="42.95413" lon="-0.07082">
        <ele>479.2</ele>
        <time>2024-08-26T23:37:12.766Z</time>
      </trkpt>
      <trkpt lat="42.95456" lon="-0.07117">
        <ele>481</ele>
        <time>2024-08-26T23:37:37.937Z</time>
      </trkpt>
      <trkpt lat="42.95488" lon="-0.07149">
        <ele>481.3</ele>
        <time>2024-08-26T23:37:56.166Z</time>
      </trkpt>
      <trkpt lat="42.95502" lon="-0.07167">
        <ele>481</ele>
        <time>2024-08-26T23:38:04.397Z</time>
      </trkpt>
      <trkpt lat="42.95582" lon="-0.07283">
        <ele>484</ele>
        <time>2024-08-26T23:39:01.169Z</time>
      </trkpt>
      <trkpt lat="42.9564" lon="-0.07374">
        <ele>487.4</ele>
        <time>2024-08-26T23:39:45.947Z</time>
      </trkpt>
      <trkpt lat="42.9566" lon="-0.07411">
        <ele>488.9</ele>
        <time>2024-08-26T23:40:03.354Z</time>
      </trkpt>
      <trkpt lat="42.95669" lon="-0.07439">
        <ele>490.7</ele>
        <time>2024-08-26T23:40:16.395Z</time>
      </trkpt>
      <trkpt lat="42.95677" lon="-0.07475">
        <ele>493.1</ele>
        <time>2024-08-26T23:40:32.812Z</time>
      </trkpt>
      <trkpt lat="42.95685" lon="-0.07494">
        <ele>493.6</ele>
        <time>2024-08-26T23:40:40.756Z</time>
      </trkpt>
      <trkpt lat="42.95684" lon="-0.07496">
        <ele>493.8</ele>
        <time>2024-08-26T23:40:41.912Z</time>
      </trkpt>
      <trkpt lat="42.9568" lon="-0.07497">
        <ele>494.3</ele>
        <time>2024-08-26T23:40:44.661Z</time>
      </trkpt>
      <trkpt lat="42.95658" lon="-0.07493">
        <ele>497.1</ele>
        <time>2024-08-26T23:40:59.839Z</time>
        <extensions>
          <visugpx:TrkExtension xmlns:visugpx="https://www.visugpx.com/editgpx/">
            <visugpx:node>9</visugpx:node>
            </visugpx:TrkExtension>
        </extensions>
      </trkpt>
      <trkpt lat="42.9568" lon="-0.07497">
        <ele>494.3</ele>
        <time>2024-08-26T23:41:08.560Z</time>
      </trkpt>
      <trkpt lat="42.95684" lon="-0.07496">
        <ele>493.8</ele>
        <time>2024-08-26T23:41:10.158Z</time>
      </trkpt>
      <trkpt lat="42.95685" lon="-0.07494">
        <ele>493.6</ele>
        <time>2024-08-26T23:41:10.854Z</time>
      </trkpt>
      <trkpt lat="42.95696" lon="-0.07505">
        <ele>492.6</ele>
        <time>2024-08-26T23:41:16.210Z</time>
      </trkpt>
      <trkpt lat="42.95707" lon="-0.0751">
        <ele>490</ele>
        <time>2024-08-26T23:41:20.765Z</time>
      </trkpt>
      <trkpt lat="42.95723" lon="-0.07512">
        <ele>486.5</ele>
        <time>2024-08-26T23:41:27.079Z</time>
      </trkpt>
      <trkpt lat="42.95739" lon="-0.07511">
        <ele>488.7</ele>
        <time>2024-08-26T23:41:38.486Z</time>
      </trkpt>
      <trkpt lat="42.9578" lon="-0.07497">
        <ele>489.8</ele>
        <time>2024-08-26T23:41:59.074Z</time>
      </trkpt>
      <trkpt lat="42.95782" lon="-0.07489">
        <ele>489.3</ele>
        <time>2024-08-26T23:42:01.505Z</time>
      </trkpt>
      <trkpt lat="42.95787" lon="-0.07486">
        <ele>489.2</ele>
        <time>2024-08-26T23:42:03.824Z</time>
      </trkpt>
      <trkpt lat="42.95791" lon="-0.07487">
        <ele>489.3</ele>
        <time>2024-08-26T23:42:05.796Z</time>
      </trkpt>
      <trkpt lat="42.95794" lon="-0.07493">
        <ele>489.6</ele>
        <time>2024-08-26T23:42:08.655Z</time>
      </trkpt>
      <trkpt lat="42.95801" lon="-0.07491">
        <ele>489.6</ele>
        <time>2024-08-26T23:42:11.866Z</time>
      </trkpt>
      <trkpt lat="42.95815" lon="-0.07485">
        <ele>489</ele>
        <time>2024-08-26T23:42:17.694Z</time>
      </trkpt>
      <trkpt lat="42.95862" lon="-0.07459">
        <ele>486.5</ele>
        <time>2024-08-26T23:42:37.618Z</time>
      </trkpt>
      <trkpt lat="42.95884" lon="-0.07454">
        <ele>486.1</ele>
        <time>2024-08-26T23:42:47.100Z</time>
      </trkpt>
      <trkpt lat="42.95926" lon="-0.07448">
        <ele>484.3</ele>
        <time>2024-08-26T23:43:03.788Z</time>
      </trkpt>
      <trkpt lat="42.96081" lon="-0.07448">
        <ele>477.1</ele>
        <time>2024-08-26T23:44:04.692Z</time>
      </trkpt>
      <trkpt lat="42.96215" lon="-0.07451">
        <ele>473.5</ele>
        <time>2024-08-26T23:45:00.174Z</time>
      </trkpt>
      <trkpt lat="42.96317" lon="-0.0745">
        <ele>469.8</ele>
        <time>2024-08-26T23:45:41.241Z</time>
      </trkpt>
      <trkpt lat="42.96338" lon="-0.07448">
        <ele>469</ele>
        <time>2024-08-26T23:45:49.673Z</time>
      </trkpt>
      <trkpt lat="42.96546" lon="-0.07389">
        <ele>462.3</ele>
        <time>2024-08-26T23:47:16.404Z</time>
      </trkpt>
      <trkpt lat="42.96573" lon="-0.0738">
        <ele>462</ele>
        <time>2024-08-26T23:47:28.479Z</time>
      </trkpt>
      <trkpt lat="42.96587" lon="-0.07371">
        <ele>461.9</ele>
        <time>2024-08-26T23:47:35.290Z</time>
      </trkpt>
      <trkpt lat="42.96601" lon="-0.07357">
        <ele>461.3</ele>
        <time>2024-08-26T23:47:42.310Z</time>
      </trkpt>
      <trkpt lat="42.96598" lon="-0.07346">
        <ele>461.2</ele>
        <time>2024-08-26T23:47:46.032Z</time>
      </trkpt>
      <trkpt lat="42.96599" lon="-0.07336">
        <ele>460.9</ele>
        <time>2024-08-26T23:47:48.968Z</time>
      </trkpt>
      <trkpt lat="42.96603" lon="-0.07328">
        <ele>460.5</ele>
        <time>2024-08-26T23:47:51.754Z</time>
      </trkpt>
      <trkpt lat="42.96611" lon="-0.07324">
        <ele>460</ele>
        <time>2024-08-26T23:47:55.101Z</time>
      </trkpt>
      <trkpt lat="42.96616" lon="-0.07325">
        <ele>459.9</ele>
        <time>2024-08-26T23:47:57.238Z</time>
      </trkpt>
      <trkpt lat="42.96622" lon="-0.0733">
        <ele>459.7</ele>
        <time>2024-08-26T23:48:00.133Z</time>
      </trkpt>
      <trkpt lat="42.96626" lon="-0.07337">
        <ele>459.6</ele>
        <time>2024-08-26T23:48:02.918Z</time>
      </trkpt>
      <trkpt lat="42.96627" lon="-0.07347">
        <ele>459.9</ele>
        <time>2024-08-26T23:48:06.689Z</time>
      </trkpt>
      <trkpt lat="42.96643" lon="-0.07355">
        <ele>459.7</ele>
        <time>2024-08-26T23:48:14.070Z</time>
      </trkpt>
      <trkpt lat="42.96675" lon="-0.0736">
        <ele>458.7</ele>
        <time>2024-08-26T23:48:27.239Z</time>
      </trkpt>
      <trkpt lat="42.96746" lon="-0.07378">
        <ele>457.1</ele>
        <time>2024-08-26T23:48:57.556Z</time>
      </trkpt>
      <trkpt lat="42.96826" lon="-0.07402">
        <ele>455.6</ele>
        <time>2024-08-26T23:49:32.342Z</time>
      </trkpt>
      <trkpt lat="42.97106" lon="-0.0748">
        <ele>448.6</ele>
        <time>2024-08-26T23:51:31.479Z</time>
      </trkpt>
      <trkpt lat="42.97127" lon="-0.07487">
        <ele>448.2</ele>
        <time>2024-08-26T23:51:40.654Z</time>
      </trkpt>
      <trkpt lat="42.97213" lon="-0.07526">
        <ele>445.1</ele>
        <time>2024-08-26T23:52:17.357Z</time>
      </trkpt>
      <trkpt lat="42.97347" lon="-0.07591">
        <ele>443.5</ele>
        <time>2024-08-26T23:53:19.050Z</time>
      </trkpt>
      <trkpt lat="42.97362" lon="-0.076">
        <ele>443.6</ele>
        <time>2024-08-26T23:53:26.546Z</time>
      </trkpt>
      <trkpt lat="42.97387" lon="-0.0762">
        <ele>443</ele>
        <time>2024-08-26T23:53:38.761Z</time>
      </trkpt>
      <trkpt lat="42.97396" lon="-0.07541">
        <ele>443</ele>
        <time>2024-08-26T23:54:05.030Z</time>
      </trkpt>
      <trkpt lat="42.97313" lon="-0.07517">
        <ele>444.2</ele>
        <time>2024-08-26T23:54:44.838Z</time>
        <extensions>
          <visugpx:TrkExtension xmlns:visugpx="https://www.visugpx.com/editgpx/">
            <visugpx:node>10</visugpx:node>
            </visugpx:TrkExtension>
        </extensions>
      </trkpt>
      <trkpt lat="42.97396" lon="-0.07541">
        <ele>443</ele>
        <time>2024-08-26T23:55:21.325Z</time>
      </trkpt>
      <trkpt lat="42.97387" lon="-0.0762">
        <ele>443</ele>
        <time>2024-08-26T23:55:47.594Z</time>
      </trkpt>
      <trkpt lat="42.97414" lon="-0.07651">
        <ele>442.6</ele>
        <time>2024-08-26T23:56:02.890Z</time>
      </trkpt>
      <trkpt lat="42.97437" lon="-0.07683">
        <ele>442</ele>
        <time>2024-08-26T23:56:16.830Z</time>
      </trkpt>
      <trkpt lat="42.97457" lon="-0.07723">
        <ele>442</ele>
        <time>2024-08-26T23:56:32.748Z</time>
      </trkpt>
      <trkpt lat="42.975" lon="-0.0783">
        <ele>441</ele>
        <time>2024-08-26T23:57:11.508Z</time>
      </trkpt>
      <trkpt lat="42.97523" lon="-0.07879">
        <ele>440.7</ele>
        <time>2024-08-26T23:57:30.227Z</time>
      </trkpt>
      <trkpt lat="42.97542" lon="-0.07914">
        <ele>440.5</ele>
        <time>2024-08-26T23:57:44.274Z</time>
      </trkpt>
      <trkpt lat="42.97555" lon="-0.07934">
        <ele>440.6</ele>
        <time>2024-08-26T23:57:53.203Z</time>
      </trkpt>
      <trkpt lat="42.97583" lon="-0.07967">
        <ele>440</ele>
        <time>2024-08-26T23:58:09.005Z</time>
      </trkpt>
      <trkpt lat="42.97667" lon="-0.08052">
        <ele>439</ele>
        <time>2024-08-26T23:58:54.584Z</time>
      </trkpt>
      <trkpt lat="42.97712" lon="-0.08094">
        <ele>438.2</ele>
        <time>2024-08-26T23:59:17.982Z</time>
      </trkpt>
      <trkpt lat="42.97772" lon="-0.08142">
        <ele>437.9</ele>
        <time>2024-08-26T23:59:48.791Z</time>
      </trkpt>
      <trkpt lat="42.9799" lon="-0.08323">
        <ele>436</ele>
        <time>2024-08-27T00:01:40.746Z</time>
      </trkpt>
      <trkpt lat="42.98313" lon="-0.08639">
        <ele>433</ele>
        <time>2024-08-27T00:04:35.035Z</time>
      </trkpt>
      <trkpt lat="42.98362" lon="-0.08686">
        <ele>432.7</ele>
        <time>2024-08-27T00:05:01.506Z</time>
      </trkpt>
      <trkpt lat="42.98398" lon="-0.08718">
        <ele>432</ele>
        <time>2024-08-27T00:05:19.855Z</time>
      </trkpt>
      <trkpt lat="42.98437" lon="-0.08744">
        <ele>432</ele>
        <time>2024-08-27T00:05:39.340Z</time>
      </trkpt>
      <trkpt lat="42.98469" lon="-0.08762">
        <ele>432</ele>
        <time>2024-08-27T00:05:54.879Z</time>
      </trkpt>
      <trkpt lat="42.98616" lon="-0.08833">
        <ele>430.8</ele>
        <time>2024-08-27T00:07:03.258Z</time>
      </trkpt>
      <trkpt lat="42.98635" lon="-0.08841">
        <ele>430.1</ele>
        <time>2024-08-27T00:07:11.287Z</time>
      </trkpt>
      <trkpt lat="42.98672" lon="-0.08853">
        <ele>430</ele>
        <time>2024-08-27T00:07:28.226Z</time>
      </trkpt>
      <trkpt lat="42.98774" lon="-0.08877">
        <ele>430</ele>
        <time>2024-08-27T00:08:14.704Z</time>
      </trkpt>
      <trkpt lat="42.98811" lon="-0.08888">
        <ele>430</ele>
        <time>2024-08-27T00:08:31.708Z</time>
      </trkpt>
      <trkpt lat="42.98834" lon="-0.08897">
        <ele>430</ele>
        <time>2024-08-27T00:08:42.451Z</time>
      </trkpt>
      <trkpt lat="42.98883" lon="-0.08919">
        <ele>430.1</ele>
        <time>2024-08-27T00:09:05.750Z</time>
      </trkpt>
      <trkpt lat="42.98933" lon="-0.08955">
        <ele>431.2</ele>
        <time>2024-08-27T00:09:32.713Z</time>
      </trkpt>
      <trkpt lat="42.98973" lon="-0.08971">
        <ele>432</ele>
        <time>2024-08-27T00:09:52.582Z</time>
      </trkpt>
      <trkpt lat="42.99102" lon="-0.09012">
        <ele>428.7</ele>
        <time>2024-08-27T00:10:47.729Z</time>
      </trkpt>
      <trkpt lat="42.99158" lon="-0.09035">
        <ele>428</ele>
        <time>2024-08-27T00:11:13.044Z</time>
      </trkpt>
      <trkpt lat="42.99344" lon="-0.09123">
        <ele>433.1</ele>
        <time>2024-08-27T00:12:48.892Z</time>
      </trkpt>
      <trkpt lat="42.99411" lon="-0.09162">
        <ele>434.2</ele>
        <time>2024-08-27T00:13:23.164Z</time>
      </trkpt>
      <trkpt lat="42.9943" lon="-0.0917">
        <ele>434.2</ele>
        <time>2024-08-27T00:13:32.091Z</time>
      </trkpt>
      <trkpt lat="42.99437" lon="-0.09172">
        <ele>434.2</ele>
        <time>2024-08-27T00:13:35.303Z</time>
      </trkpt>
      <trkpt lat="42.9947" lon="-0.09173">
        <ele>431.9</ele>
        <time>2024-08-27T00:13:48.273Z</time>
      </trkpt>
      <trkpt lat="42.99504" lon="-0.09172">
        <ele>431.5</ele>
        <time>2024-08-27T00:14:03.005Z</time>
      </trkpt>
      <trkpt lat="42.99535" lon="-0.09178">
        <ele>432</ele>
        <time>2024-08-27T00:14:17.780Z</time>
      </trkpt>
      <trkpt lat="42.99595" lon="-0.09199">
        <ele>432.9</ele>
        <time>2024-08-27T00:14:46.877Z</time>
      </trkpt>
      <trkpt lat="42.99629" lon="-0.09201">
        <ele>434</ele>
        <time>2024-08-27T00:15:03.792Z</time>
      </trkpt>
      <trkpt lat="42.99646" lon="-0.09206">
        <ele>434.3</ele>
        <time>2024-08-27T00:15:12.031Z</time>
      </trkpt>
      <trkpt lat="42.99661" lon="-0.09216">
        <ele>434.8</ele>
        <time>2024-08-27T00:15:20.264Z</time>
      </trkpt>
      <trkpt lat="42.9967" lon="-0.09224">
        <ele>435</ele>
        <time>2024-08-27T00:15:25.372Z</time>
      </trkpt>
      <trkpt lat="42.9973" lon="-0.09312">
        <ele>438.1</ele>
        <time>2024-08-27T00:16:09.518Z</time>
        <extensions>
          <visugpx:TrkExtension xmlns:visugpx="https://www.visugpx.com/editgpx/">
            <visugpx:node>11</visugpx:node>
            </visugpx:TrkExtension>
        </extensions>
      </trkpt>
      <trkpt lat="42.99766" lon="-0.09366">
        <ele>439.9</ele>
        <time>2024-08-27T00:16:36.197Z</time>
      </trkpt>
      <trkpt lat="42.99804" lon="-0.09428">
        <ele>444.9</ele>
        <time>2024-08-27T00:17:11.152Z</time>
      </trkpt>
      <trkpt lat="42.99957" lon="-0.09653">
        <ele>446</ele>
        <time>2024-08-27T00:18:53.591Z</time>
      </trkpt>
      <trkpt lat="43.00085" lon="-0.09847">
        <ele>448.5</ele>
        <time>2024-08-27T00:20:22.957Z</time>
      </trkpt>
      <trkpt lat="43.001" lon="-0.09868">
        <ele>448.6</ele>
        <time>2024-08-27T00:20:32.737Z</time>
      </trkpt>
      <trkpt lat="43.00143" lon="-0.0992">
        <ele>449.9</ele>
        <time>2024-08-27T00:21:00.403Z</time>
      </trkpt>
      <trkpt lat="43.00146" lon="-0.09916">
        <ele>449.7</ele>
        <time>2024-08-27T00:21:02.050Z</time>
      </trkpt>
      <trkpt lat="43.0015" lon="-0.09914">
        <ele>449.5</ele>
        <time>2024-08-27T00:21:03.723Z</time>
      </trkpt>
      <trkpt lat="43.00158" lon="-0.09915">
        <ele>449.3</ele>
        <time>2024-08-27T00:21:07.068Z</time>
      </trkpt>
      <trkpt lat="43.00161" lon="-0.09918">
        <ele>449.2</ele>
        <time>2024-08-27T00:21:08.607Z</time>
      </trkpt>
      <trkpt lat="43.00164" lon="-0.09928">
        <ele>449.1</ele>
        <time>2024-08-27T00:21:12.022Z</time>
      </trkpt>
      <trkpt lat="43.00163" lon="-0.09934">
        <ele>449.1</ele>
        <time>2024-08-27T00:21:14.043Z</time>
      </trkpt>
      <trkpt lat="43.00161" lon="-0.09938">
        <ele>449.2</ele>
        <time>2024-08-27T00:21:15.781Z</time>
      </trkpt>
      <trkpt lat="43.00157" lon="-0.09941">
        <ele>449.3</ele>
        <time>2024-08-27T00:21:17.975Z</time>
      </trkpt>
      <trkpt lat="43.00162" lon="-0.09957">
        <ele>449.6</ele>
        <time>2024-08-27T00:21:24.126Z</time>
      </trkpt>
      <trkpt lat="43.00217" lon="-0.10058">
        <ele>449.9</ele>
        <time>2024-08-27T00:22:05.899Z</time>
      </trkpt>
      <trkpt lat="43.00263" lon="-0.10151">
        <ele>450.4</ele>
        <time>2024-08-27T00:22:43.471Z</time>
      </trkpt>
      <trkpt lat="43.00273" lon="-0.10164">
        <ele>450.9</ele>
        <time>2024-08-27T00:22:50.416Z</time>
        <extensions>
          <visugpx:TrkExtension xmlns:visugpx="https://www.visugpx.com/editgpx/">
            <visugpx:node>12</visugpx:node>
            </visugpx:TrkExtension>
        </extensions>
      </trkpt>
      <trkpt lat="43.00284" lon="-0.1017">
        <ele>451.4</ele>
        <time>2024-08-27T00:22:56.493Z</time>
      </trkpt>
      <trkpt lat="43.00295" lon="-0.10171">
        <ele>451.9</ele>
        <time>2024-08-27T00:23:02.208Z</time>
      </trkpt>
      <trkpt lat="43.0031" lon="-0.10168">
        <ele>452.4</ele>
        <time>2024-08-27T00:23:09.759Z</time>
      </trkpt>
      <trkpt lat="43.00329" lon="-0.10161">
        <ele>453.1</ele>
        <time>2024-08-27T00:23:19.643Z</time>
      </trkpt>
      <trkpt lat="43.00496" lon="-0.10079">
        <ele>461.7</ele>
        <time>2024-08-27T00:24:52.571Z</time>
      </trkpt>
      <trkpt lat="43.00558" lon="-0.10047">
        <ele>460.3</ele>
        <time>2024-08-27T00:25:20.480Z</time>
      </trkpt>
      <trkpt lat="43.00573" lon="-0.10041">
        <ele>459.7</ele>
        <time>2024-08-27T00:25:26.733Z</time>
        <extensions>
          <visugpx:TrkExtension xmlns:visugpx="https://www.visugpx.com/editgpx/">
            <visugpx:node>13</visugpx:node>
            </visugpx:TrkExtension>
        </extensions>
      </trkpt>
      <trkpt lat="43.00633" lon="-0.10024">
        <ele>457.9</ele>
        <time>2024-08-27T00:25:51.911Z</time>
      </trkpt>
      <trkpt lat="43.00644" lon="-0.10094">
        <ele>459</ele>
        <time>2024-08-27T00:26:17.015Z</time>
      </trkpt>
      <trkpt lat="43.00679" lon="-0.1011">
        <ele>459</ele>
        <time>2024-08-27T00:26:33.587Z</time>
      </trkpt>
      <trkpt lat="43.00703" lon="-0.10117">
        <ele>458.8</ele>
        <time>2024-08-27T00:26:44.335Z</time>
      </trkpt>
      <trkpt lat="43.00707" lon="-0.10123">
        <ele>458.7</ele>
        <time>2024-08-27T00:26:46.868Z</time>
      </trkpt>
      <trkpt lat="43.00708" lon="-0.10132">
        <ele>458.9</ele>
        <time>2024-08-27T00:26:50.153Z</time>
      </trkpt>
      <trkpt lat="43.007" lon="-0.10127">
        <ele>458.9</ele>
        <time>2024-08-27T00:26:54.103Z</time>
      </trkpt>
      <trkpt lat="43.00693" lon="-0.10127">
        <ele>459</ele>
        <time>2024-08-27T00:26:57.389Z</time>
        <extensions>
          <visugpx:TrkExtension xmlns:visugpx="https://www.visugpx.com/editgpx/">
            <visugpx:node>14</visugpx:node>
            </visugpx:TrkExtension>
        </extensions>
      </trkpt>
      <trkpt lat="43.007" lon="-0.10127">
        <ele>458.9</ele>
        <time>2024-08-27T00:27:00.398Z</time>
      </trkpt>
      <trkpt lat="43.00708" lon="-0.10132">
        <ele>458.9</ele>
        <time>2024-08-27T00:27:04.348Z</time>
      </trkpt>
      <trkpt lat="43.00705" lon="-0.10145">
        <ele>460</ele>
        <time>2024-08-27T00:27:10.791Z</time>
      </trkpt>
      <trkpt lat="43.00697" lon="-0.10153">
        <ele>461.1</ele>
        <time>2024-08-27T00:27:17.212Z</time>
      </trkpt>
      <trkpt lat="43.0066" lon="-0.10163">
        <ele>462.5</ele>
        <time>2024-08-27T00:27:36.250Z</time>
      </trkpt>
      <trkpt lat="43.0062" lon="-0.10165">
        <ele>462.8</ele>
        <time>2024-08-27T00:27:54.646Z</time>
      </trkpt>
      <trkpt lat="43.00601" lon="-0.1017">
        <ele>463.8</ele>
        <time>2024-08-27T00:28:04.886Z</time>
      </trkpt>
      <trkpt lat="43.00591" lon="-0.10175">
        <ele>464.9</ele>
        <time>2024-08-27T00:28:11.600Z</time>
      </trkpt>
      <trkpt lat="43.00576" lon="-0.10186">
        <ele>466.6</ele>
        <time>2024-08-27T00:28:22.205Z</time>
      </trkpt>
      <trkpt lat="43.00556" lon="-0.10206">
        <ele>468.5</ele>
        <time>2024-08-27T00:28:36.459Z</time>
      </trkpt>
      <trkpt lat="43.00549" lon="-0.10217">
        <ele>470</ele>
        <time>2024-08-27T00:28:44.146Z</time>
      </trkpt>
      <trkpt lat="43.00532" lon="-0.10252">
        <ele>473.1</ele>
        <time>2024-08-27T00:29:03.358Z</time>
      </trkpt>
      <trkpt lat="43.00504" lon="-0.10296">
        <ele>475.3</ele>
        <time>2024-08-27T00:29:25.925Z</time>
      </trkpt>
      <trkpt lat="43.00494" lon="-0.10316">
        <ele>476.9</ele>
        <time>2024-08-27T00:29:36.604Z</time>
      </trkpt>
      <trkpt lat="43.0049" lon="-0.10334">
        <ele>479</ele>
        <time>2024-08-27T00:29:46.970Z</time>
      </trkpt>
      <trkpt lat="43.00484" lon="-0.10393">
        <ele>485.4</ele>
        <time>2024-08-27T00:30:19.103Z</time>
      </trkpt>
      <trkpt lat="43.00477" lon="-0.10412">
        <ele>487.1</ele>
        <time>2024-08-27T00:30:29.121Z</time>
      </trkpt>
      <trkpt lat="43.00459" lon="-0.10434">
        <ele>487.9</ele>
        <time>2024-08-27T00:30:41.153Z</time>
      </trkpt>
      <trkpt lat="43.00431" lon="-0.10463">
        <ele>489.1</ele>
        <time>2024-08-27T00:30:58.715Z</time>
      </trkpt>
      <trkpt lat="43.00416" lon="-0.10482">
        <ele>490.4</ele>
        <time>2024-08-27T00:31:09.971Z</time>
      </trkpt>
      <trkpt lat="43.00406" lon="-0.10498">
        <ele>493</ele>
        <time>2024-08-27T00:31:22.299Z</time>
      </trkpt>
      <trkpt lat="43.00376" lon="-0.10558">
        <ele>504.8</ele>
        <time>2024-08-27T00:32:14.649Z</time>
      </trkpt>
      <trkpt lat="43.00367" lon="-0.1057">
        <ele>506.5</ele>
        <time>2024-08-27T00:32:23.533Z</time>
      </trkpt>
      <trkpt lat="43.00348" lon="-0.10586">
        <ele>507.3</ele>
        <time>2024-08-27T00:32:34.750Z</time>
        <extensions>
          <visugpx:TrkExtension xmlns:visugpx="https://www.visugpx.com/editgpx/">
            <visugpx:node>15</visugpx:node>
            </visugpx:TrkExtension>
        </extensions>
      </trkpt>
      <trkpt lat="43.00335" lon="-0.10596">
        <ele>507</ele>
        <time>2024-08-27T00:32:41.051Z</time>
      </trkpt>
      <trkpt lat="43.00324" lon="-0.10607">
        <ele>507.4</ele>
        <time>2024-08-27T00:32:47.760Z</time>
      </trkpt>
      <trkpt lat="43.00326" lon="-0.10612">
        <ele>508.9</ele>
        <time>2024-08-27T00:32:55.006Z</time>
      </trkpt>
      <trkpt lat="43.00332" lon="-0.10618">
        <ele>511.5</ele>
        <time>2024-08-27T00:33:07.408Z</time>
      </trkpt>
      <trkpt lat="43.00335" lon="-0.10619">
        <ele>512.3</ele>
        <time>2024-08-27T00:33:10.944Z</time>
      </trkpt>
      <trkpt lat="43.00339" lon="-0.10618">
        <ele>512.8</ele>
        <time>2024-08-27T00:33:13.693Z</time>
      </trkpt>
      <trkpt lat="43.0036" lon="-0.10599">
        <ele>512.2</ele>
        <time>2024-08-27T00:33:24.212Z</time>
      </trkpt>
      <trkpt lat="43.00402" lon="-0.10583">
        <ele>515.3</ele>
        <time>2024-08-27T00:33:48.826Z</time>
      </trkpt>
      <trkpt lat="43.00417" lon="-0.10571">
        <ele>515</ele>
        <time>2024-08-27T00:33:56.231Z</time>
      </trkpt>
      <trkpt lat="43.00458" lon="-0.10529">
        <ele>512.3</ele>
        <time>2024-08-27T00:34:16.360Z</time>
      </trkpt>
      <trkpt lat="43.00471" lon="-0.1052">
        <ele>512.2</ele>
        <time>2024-08-27T00:34:22.767Z</time>
      </trkpt>
      <trkpt lat="43.00488" lon="-0.10517">
        <ele>514.3</ele>
        <time>2024-08-27T00:34:34.337Z</time>
      </trkpt>
      <trkpt lat="43.00555" lon="-0.10528">
        <ele>528</ele>
        <time>2024-08-27T00:35:35.982Z</time>
      </trkpt>
      <trkpt lat="43.00575" lon="-0.10525">
        <ele>531.5</ele>
        <time>2024-08-27T00:35:52.408Z</time>
      </trkpt>
      <trkpt lat="43.00585" lon="-0.10518">
        <ele>532</ele>
        <time>2024-08-27T00:35:58.216Z</time>
      </trkpt>
      <trkpt lat="43.00592" lon="-0.1051">
        <ele>531.8</ele>
        <time>2024-08-27T00:36:02.048Z</time>
      </trkpt>
      <trkpt lat="43.00608" lon="-0.10476">
        <ele>526.4</ele>
        <time>2024-08-27T00:36:13.666Z</time>
      </trkpt>
      <trkpt lat="43.00613" lon="-0.10472">
        <ele>526.3</ele>
        <time>2024-08-27T00:36:16.134Z</time>
      </trkpt>
      <trkpt lat="43.00621" lon="-0.1047">
        <ele>527.4</ele>
        <time>2024-08-27T00:36:21.882Z</time>
      </trkpt>
      <trkpt lat="43.00653" lon="-0.10472">
        <ele>535.5</ele>
        <time>2024-08-27T00:36:57.632Z</time>
      </trkpt>
      <trkpt lat="43.00671" lon="-0.10471">
        <ele>539.4</ele>
        <time>2024-08-27T00:37:14.989Z</time>
      </trkpt>
      <trkpt lat="43.00729" lon="-0.1046">
        <ele>544.1</ele>
        <time>2024-08-27T00:37:49.088Z</time>
      </trkpt>
      <trkpt lat="43.00745" lon="-0.10461">
        <ele>546.4</ele>
        <time>2024-08-27T00:38:00.759Z</time>
      </trkpt>
      <trkpt lat="43.00795" lon="-0.10469">
        <ele>552.4</ele>
        <time>2024-08-27T00:38:34.336Z</time>
      </trkpt>
      <trkpt lat="43.00836" lon="-0.10467">
        <ele>555</ele>
        <time>2024-08-27T00:38:56.905Z</time>
      </trkpt>
      <trkpt lat="43.00844" lon="-0.10468">
        <ele>555.6</ele>
        <time>2024-08-27T00:39:01.496Z</time>
      </trkpt>
      <trkpt lat="43.00856" lon="-0.10474">
        <ele>557</ele>
        <time>2024-08-27T00:39:09.732Z</time>
      </trkpt>
      <trkpt lat="43.00863" lon="-0.10482">
        <ele>558.1</ele>
        <time>2024-08-27T00:39:15.847Z</time>
      </trkpt>
      <trkpt lat="43.00868" lon="-0.10495">
        <ele>559.6</ele>
        <time>2024-08-27T00:39:23.561Z</time>
        <extensions>
          <visugpx:TrkExtension xmlns:visugpx="https://www.visugpx.com/editgpx/">
            <visugpx:node>16</visugpx:node>
            </visugpx:TrkExtension>
        </extensions>
      </trkpt>
      <trkpt lat="43.00887" lon="-0.1056">
        <ele>564.2</ele>
        <time>2024-08-27T00:39:54.366Z</time>
      </trkpt>
      <trkpt lat="43.0089" lon="-0.10576">
        <ele>564.7</ele>
        <time>2024-08-27T00:40:00.548Z</time>
      </trkpt>
      <trkpt lat="43.00889" lon="-0.1059">
        <ele>565.2</ele>
        <time>2024-08-27T00:40:05.937Z</time>
      </trkpt>
      <trkpt lat="43.00878" lon="-0.10638">
        <ele>566.4</ele>
        <time>2024-08-27T00:40:24.238Z</time>
      </trkpt>
      <trkpt lat="43.00877" lon="-0.10656">
        <ele>566.4</ele>
        <time>2024-08-27T00:40:30.166Z</time>
      </trkpt>
      <trkpt lat="43.00879" lon="-0.10678">
        <ele>567.2</ele>
        <time>2024-08-27T00:40:38.680Z</time>
      </trkpt>
      <trkpt lat="43.00895" lon="-0.10745">
        <ele>572.8</ele>
        <time>2024-08-27T00:41:11.795Z</time>
      </trkpt>
      <trkpt lat="43.00898" lon="-0.10756">
        <ele>574.9</ele>
        <time>2024-08-27T00:41:21.059Z</time>
      </trkpt>
      <trkpt lat="43.00903" lon="-0.10766">
        <ele>577</ele>
        <time>2024-08-27T00:41:30.329Z</time>
      </trkpt>
      <trkpt lat="43.00912" lon="-0.10775">
        <ele>578</ele>
        <time>2024-08-27T00:41:37.034Z</time>
      </trkpt>
      <trkpt lat="43.0092" lon="-0.10778">
        <ele>577.8</ele>
        <time>2024-08-27T00:41:40.497Z</time>
      </trkpt>
      <trkpt lat="43.00948" lon="-0.10773">
        <ele>575</ele>
        <time>2024-08-27T00:41:51.592Z</time>
      </trkpt>
      <trkpt lat="43.00968" lon="-0.10772">
        <ele>574.8</ele>
        <time>2024-08-27T00:42:00.309Z</time>
      </trkpt>
      <trkpt lat="43.00995" lon="-0.1078">
        <ele>576.6</ele>
        <time>2024-08-27T00:42:15.598Z</time>
      </trkpt>
      <trkpt lat="43.01016" lon="-0.10789">
        <ele>577.3</ele>
        <time>2024-08-27T00:42:26.518Z</time>
      </trkpt>
      <trkpt lat="43.011" lon="-0.1084">
        <ele>584</ele>
        <time>2024-08-27T00:43:18.720Z</time>
      </trkpt>
      <trkpt lat="43.01111" lon="-0.10845">
        <ele>584.5</ele>
        <time>2024-08-27T00:43:24.686Z</time>
      </trkpt>
      <trkpt lat="43.01135" lon="-0.10851">
        <ele>586.1</ele>
        <time>2024-08-27T00:43:38.207Z</time>
        <extensions>
          <visugpx:TrkExtension xmlns:visugpx="https://www.visugpx.com/editgpx/">
            <visugpx:node>17</visugpx:node>
            </visugpx:TrkExtension>
        </extensions>
      </trkpt>
      <trkpt lat="43.01142" lon="-0.10858">
        <ele>587.7</ele>
        <time>2024-08-27T00:43:45.578Z</time>
      </trkpt>
      <trkpt lat="43.01144" lon="-0.10865">
        <ele>589</ele>
        <time>2024-08-27T00:43:51.317Z</time>
      </trkpt>
      <trkpt lat="43.01143" lon="-0.10874">
        <ele>590.3</ele>
        <time>2024-08-27T00:43:57.217Z</time>
      </trkpt>
      <trkpt lat="43.01136" lon="-0.10885">
        <ele>591.5</ele>
        <time>2024-08-27T00:44:04.163Z</time>
      </trkpt>
      <trkpt lat="43.01127" lon="-0.10889">
        <ele>592.5</ele>
        <time>2024-08-27T00:44:10.180Z</time>
      </trkpt>
      <trkpt lat="43.01115" lon="-0.1089">
        <ele>593.1</ele>
        <time>2024-08-27T00:44:16.506Z</time>
      </trkpt>
      <trkpt lat="43.01089" lon="-0.10885">
        <ele>595.4</ele>
        <time>2024-08-27T00:44:32.184Z</time>
      </trkpt>
      <trkpt lat="43.01069" lon="-0.10879">
        <ele>596.9</ele>
        <time>2024-08-27T00:44:43.828Z</time>
      </trkpt>
      <trkpt lat="43.01039" lon="-0.10866">
        <ele>597.2</ele>
        <time>2024-08-27T00:44:58.383Z</time>
      </trkpt>
      <trkpt lat="43.0103" lon="-0.10869">
        <ele>598.5</ele>
        <time>2024-08-27T00:45:05.053Z</time>
      </trkpt>
      <trkpt lat="43.01025" lon="-0.10878">
        <ele>600.9</ele>
        <time>2024-08-27T00:45:15.827Z</time>
      </trkpt>
      <trkpt lat="43.01025" lon="-0.10893">
        <ele>604.1</ele>
        <time>2024-08-27T00:45:30.206Z</time>
      </trkpt>
      <trkpt lat="43.01035" lon="-0.10912">
        <ele>606.4</ele>
        <time>2024-08-27T00:45:42.265Z</time>
      </trkpt>
      <trkpt lat="43.01063" lon="-0.10949">
        <ele>608.7</ele>
        <time>2024-08-27T00:46:03.381Z</time>
      </trkpt>
      <trkpt lat="43.0109" lon="-0.10974">
        <ele>609.7</ele>
        <time>2024-08-27T00:46:19.502Z</time>
      </trkpt>
      <trkpt lat="43.011" lon="-0.1099">
        <ele>610.5</ele>
        <time>2024-08-27T00:46:27.656Z</time>
      </trkpt>
      <trkpt lat="43.01115" lon="-0.11035">
        <ele>613.5</ele>
        <time>2024-08-27T00:46:48.909Z</time>
      </trkpt>
      <trkpt lat="43.01126" lon="-0.11061">
        <ele>615.1</ele>
        <time>2024-08-27T00:47:01.382Z</time>
      </trkpt>
      <trkpt lat="43.01144" lon="-0.11121">
        <ele>616.7</ele>
        <time>2024-08-27T00:47:25.061Z</time>
      </trkpt>
      <trkpt lat="43.01148" lon="-0.11131">
        <ele>617.1</ele>
        <time>2024-08-27T00:47:29.419Z</time>
      </trkpt>
      <trkpt lat="43.01154" lon="-0.1114">
        <ele>617.5</ele>
        <time>2024-08-27T00:47:34.029Z</time>
      </trkpt>
      <trkpt lat="43.01131" lon="-0.11169">
        <ele>617.7</ele>
        <time>2024-08-27T00:47:48.358Z</time>
      </trkpt>
      <trkpt lat="43.01103" lon="-0.11177">
        <ele>620.2</ele>
        <time>2024-08-27T00:48:05.426Z</time>
      </trkpt>
      <trkpt lat="43.01077" lon="-0.11191">
        <ele>623.4</ele>
        <time>2024-08-27T00:48:23.757Z</time>
      </trkpt>
      <trkpt lat="43.01067" lon="-0.11193">
        <ele>624.2</ele>
        <time>2024-08-27T00:48:29.620Z</time>
        <extensions>
          <visugpx:TrkExtension xmlns:visugpx="https://www.visugpx.com/editgpx/">
            <visugpx:node>18</visugpx:node>
            </visugpx:TrkExtension>
        </extensions>
      </trkpt>
      <trkpt lat="43.01067" lon="-0.11207">
        <ele>624.4</ele>
        <time>2024-08-27T00:48:34.505Z</time>
      </trkpt>
      <trkpt lat="43.01072" lon="-0.11252">
        <ele>626.1</ele>
        <time>2024-08-27T00:48:52.086Z</time>
      </trkpt>
      <trkpt lat="43.01078" lon="-0.11281">
        <ele>627.5</ele>
        <time>2024-08-27T00:49:04.216Z</time>
      </trkpt>
      <trkpt lat="43.01085" lon="-0.11301">
        <ele>629.5</ele>
        <time>2024-08-27T00:49:15.193Z</time>
      </trkpt>
      <trkpt lat="43.01085" lon="-0.11342">
        <ele>631.1</ele>
        <time>2024-08-27T00:49:31.148Z</time>
      </trkpt>
      <trkpt lat="43.01089" lon="-0.11348">
        <ele>631.3</ele>
        <time>2024-08-27T00:49:34.112Z</time>
      </trkpt>
      <trkpt lat="43.01103" lon="-0.1136">
        <ele>632.4</ele>
        <time>2024-08-27T00:49:43.300Z</time>
      </trkpt>
      <trkpt lat="43.01128" lon="-0.1137">
        <ele>633.8</ele>
        <time>2024-08-27T00:49:57.180Z</time>
      </trkpt>
      <trkpt lat="43.01125" lon="-0.11373">
        <ele>633.7</ele>
        <time>2024-08-27T00:49:58.718Z</time>
      </trkpt>
      <trkpt lat="43.01122" lon="-0.11381">
        <ele>633.7</ele>
        <time>2024-08-27T00:50:01.670Z</time>
      </trkpt>
      <trkpt lat="43.01124" lon="-0.11394">
        <ele>634.4</ele>
        <time>2024-08-27T00:50:07.172Z</time>
        <extensions>
          <visugpx:TrkExtension xmlns:visugpx="https://www.visugpx.com/editgpx/">
            <visugpx:node>19</visugpx:node>
            </visugpx:TrkExtension>
        </extensions>
      </trkpt>
      <trkpt lat="43.0113" lon="-0.11404">
        <ele>635.6</ele>
        <time>2024-08-27T00:50:13.657Z</time>
      </trkpt>
      <trkpt lat="43.01152" lon="-0.11425">
        <ele>637.6</ele>
        <time>2024-08-27T00:50:28.980Z</time>
      </trkpt>
      <trkpt lat="43.0117" lon="-0.1145">
        <ele>637.8</ele>
        <time>2024-08-27T00:50:40.782Z</time>
      </trkpt>
      <trkpt lat="43.0119" lon="-0.11501">
        <ele>642.4</ele>
        <time>2024-08-27T00:51:07.976Z</time>
      </trkpt>
      <trkpt lat="43.01197" lon="-0.11507">
        <ele>642.9</ele>
        <time>2024-08-27T00:51:12.478Z</time>
      </trkpt>
      <trkpt lat="43.0121" lon="-0.11514">
        <ele>644.2</ele>
        <time>2024-08-27T00:51:20.979Z</time>
      </trkpt>
      <trkpt lat="43.01287" lon="-0.11533">
        <ele>647.1</ele>
        <time>2024-08-27T00:52:00.467Z</time>
      </trkpt>
      <trkpt lat="43.013" lon="-0.11539">
        <ele>648.1</ele>
        <time>2024-08-27T00:52:08.259Z</time>
      </trkpt>
      <trkpt lat="43.01313" lon="-0.11551">
        <ele>650.2</ele>
        <time>2024-08-27T00:52:19.289Z</time>
        <extensions>
          <visugpx:TrkExtension xmlns:visugpx="https://www.visugpx.com/editgpx/">
            <visugpx:node>20</visugpx:node>
            </visugpx:TrkExtension>
        </extensions>
      </trkpt>
      <trkpt lat="43.0135" lon="-0.11584">
        <ele>657</ele>
        <time>2024-08-27T00:52:52.733Z</time>
      </trkpt>
      <trkpt lat="43.01398" lon="-0.11621">
        <ele>661.3</ele>
        <time>2024-08-27T00:53:24.578Z</time>
      </trkpt>
      <trkpt lat="43.01421" lon="-0.11628">
        <ele>659.9</ele>
        <time>2024-08-27T00:53:33.836Z</time>
      </trkpt>
      <trkpt lat="43.01433" lon="-0.11634">
        <ele>660.5</ele>
        <time>2024-08-27T00:53:40.495Z</time>
      </trkpt>
      <trkpt lat="43.01497" lon="-0.11692">
        <ele>671.7</ele>
        <time>2024-08-27T00:54:36.912Z</time>
      </trkpt>
      <trkpt lat="43.01524" lon="-0.11722">
        <ele>675.4</ele>
        <time>2024-08-27T00:54:59.084Z</time>
      </trkpt>
      <trkpt lat="43.01557" lon="-0.11767">
        <ele>677.7</ele>
        <time>2024-08-27T00:55:23.560Z</time>
      </trkpt>
      <trkpt lat="43.01601" lon="-0.11844">
        <ele>678.1</ele>
        <time>2024-08-27T00:55:56.207Z</time>
      </trkpt>
      <trkpt lat="43.01607" lon="-0.11869">
        <ele>678.6</ele>
        <time>2024-08-27T00:56:05.578Z</time>
        <extensions>
          <visugpx:TrkExtension xmlns:visugpx="https://www.visugpx.com/editgpx/">
            <visugpx:node>21</visugpx:node>
            </visugpx:TrkExtension>
        </extensions>
      </trkpt>
      <trkpt lat="43.01624" lon="-0.1196">
        <ele>682</ele>
        <time>2024-08-27T00:56:41.666Z</time>
      </trkpt>
      <trkpt lat="43.01676" lon="-0.12155">
        <ele>693.6</ele>
        <time>2024-08-27T00:58:08.901Z</time>
      </trkpt>
      <trkpt lat="43.01685" lon="-0.12209">
        <ele>698.4</ele>
        <time>2024-08-27T00:58:35.848Z</time>
      </trkpt>
      <trkpt lat="43.01688" lon="-0.12238">
        <ele>701.2</ele>
        <time>2024-08-27T00:58:50.738Z</time>
      </trkpt>
      <trkpt lat="43.01688" lon="-0.12296">
        <ele>705.2</ele>
        <time>2024-08-27T00:59:16.654Z</time>
      </trkpt>
      <trkpt lat="43.01678" lon="-0.12471">
        <ele>720.3</ele>
        <time>2024-08-27T01:00:41.789Z</time>
        <extensions>
          <visugpx:TrkExtension xmlns:visugpx="https://www.visugpx.com/editgpx/">
            <visugpx:node>22</visugpx:node>
            </visugpx:TrkExtension>
        </extensions>
      </trkpt>
      <trkpt lat="43.01668" lon="-0.12631">
        <ele>738.8</ele>
        <time>2024-08-27T01:02:11.893Z</time>
      </trkpt>
      <trkpt lat="43.01666" lon="-0.12694">
        <ele>744.1</ele>
        <time>2024-08-27T01:02:42.184Z</time>
      </trkpt>
      <trkpt lat="43.01669" lon="-0.12769">
        <ele>744.4</ele>
        <time>2024-08-27T01:03:07.266Z</time>
      </trkpt>
      <trkpt lat="43.0168" lon="-0.12872">
        <ele>745.7</ele>
        <time>2024-08-27T01:03:43.308Z</time>
      </trkpt>
      <trkpt lat="43.01691" lon="-0.12941">
        <ele>749</ele>
        <time>2024-08-27T01:04:11.765Z</time>
      </trkpt>
      <trkpt lat="43.01701" lon="-0.1298">
        <ele>750.8</ele>
        <time>2024-08-27T01:04:28.180Z</time>
      </trkpt>
      <trkpt lat="43.01707" lon="-0.1302">
        <ele>755.7</ele>
        <time>2024-08-27T01:04:51.662Z</time>
      </trkpt>
      <trkpt lat="43.01716" lon="-0.13119">
        <ele>768.1</ele>
        <time>2024-08-27T01:05:50.322Z</time>
      </trkpt>
      <trkpt lat="43.01726" lon="-0.13198">
        <ele>774</ele>
        <time>2024-08-27T01:06:26.943Z</time>
      </trkpt>
      <trkpt lat="43.0173" lon="-0.13215">
        <ele>774.2</ele>
        <time>2024-08-27T01:06:33.092Z</time>
      </trkpt>
      <trkpt lat="43.01736" lon="-0.13229">
        <ele>773.9</ele>
        <time>2024-08-27T01:06:38.027Z</time>
      </trkpt>
      <trkpt lat="43.01767" lon="-0.13283">
        <ele>773.2</ele>
        <time>2024-08-27T01:06:59.630Z</time>
      </trkpt>
      <trkpt lat="43.01816" lon="-0.1339">
        <ele>778</ele>
        <time>2024-08-27T01:07:48.537Z</time>
      </trkpt>
      <trkpt lat="43.01872" lon="-0.13504">
        <ele>791.7</ele>
        <time>2024-08-27T01:08:59.813Z</time>
      </trkpt>
      <trkpt lat="43.01898" lon="-0.13537">
        <ele>794.8</ele>
        <time>2024-08-27T01:09:20.979Z</time>
        <extensions>
          <visugpx:TrkExtension xmlns:visugpx="https://www.visugpx.com/editgpx/">
            <visugpx:node>23</visugpx:node>
            </visugpx:TrkExtension>
        </extensions>
      </trkpt>
      <trkpt lat="43.01913" lon="-0.13555">
        <ele>796.6</ele>
        <time>2024-08-27T01:09:33.001Z</time>
      </trkpt>
      <trkpt lat="43.01928" lon="-0.13578">
        <ele>798.7</ele>
        <time>2024-08-27T01:09:46.719Z</time>
      </trkpt>
      <trkpt lat="43.01933" lon="-0.13592">
        <ele>800.3</ele>
        <time>2024-08-27T01:09:54.925Z</time>
      </trkpt>
      <trkpt lat="43.01936" lon="-0.1361">
        <ele>802.4</ele>
        <time>2024-08-27T01:10:05.207Z</time>
      </trkpt>
      <trkpt lat="43.01937" lon="-0.13624">
        <ele>803.3</ele>
        <time>2024-08-27T01:10:11.346Z</time>
      </trkpt>
      <trkpt lat="43.01935" lon="-0.13641">
        <ele>804.7</ele>
        <time>2024-08-27T01:10:19.508Z</time>
      </trkpt>
      <trkpt lat="43.01928" lon="-0.13663">
        <ele>805.4</ele>
        <time>2024-08-27T01:10:28.442Z</time>
      </trkpt>
      <trkpt lat="43.01919" lon="-0.13678">
        <ele>806.2</ele>
        <time>2024-08-27T01:10:36.068Z</time>
      </trkpt>
      <trkpt lat="43.01911" lon="-0.13687">
        <ele>807</ele>
        <time>2024-08-27T01:10:42.039Z</time>
      </trkpt>
      <trkpt lat="43.01888" lon="-0.13702">
        <ele>808</ele>
        <time>2024-08-27T01:10:54.989Z</time>
      </trkpt>
      <trkpt lat="43.01873" lon="-0.13707">
        <ele>808.6</ele>
        <time>2024-08-27T01:11:02.826Z</time>
      </trkpt>
      <trkpt lat="43.0186" lon="-0.13709">
        <ele>809.5</ele>
        <time>2024-08-27T01:11:10.155Z</time>
      </trkpt>
      <trkpt lat="43.01832" lon="-0.1371">
        <ele>811.3</ele>
        <time>2024-08-27T01:11:25.610Z</time>
      </trkpt>
      <trkpt lat="43.01815" lon="-0.13707">
        <ele>813.4</ele>
        <time>2024-08-27T01:11:37.179Z</time>
      </trkpt>
      <trkpt lat="43.01801" lon="-0.13699">
        <ele>816.4</ele>
        <time>2024-08-27T01:11:50.755Z</time>
      </trkpt>
      <trkpt lat="43.01768" lon="-0.13667">
        <ele>825</ele>
        <time>2024-08-27T01:12:29.132Z</time>
      </trkpt>
      <trkpt lat="43.01749" lon="-0.13654">
        <ele>828.4</ele>
        <time>2024-08-27T01:12:45.588Z</time>
      </trkpt>
      <trkpt lat="43.01735" lon="-0.1365">
        <ele>829.9</ele>
        <time>2024-08-27T01:12:54.656Z</time>
      </trkpt>
      <trkpt lat="43.01717" lon="-0.13655">
        <ele>830.7</ele>
        <time>2024-08-27T01:13:04.122Z</time>
      </trkpt>
      <trkpt lat="43.0171" lon="-0.13663">
        <ele>830.7</ele>
        <time>2024-08-27T01:13:08.219Z</time>
      </trkpt>
      <trkpt lat="43.01703" lon="-0.13677">
        <ele>830.2</ele>
        <time>2024-08-27T01:13:13.152Z</time>
      </trkpt>
      <trkpt lat="43.01684" lon="-0.13726">
        <ele>830.9</ele>
        <time>2024-08-27T01:13:32.368Z</time>
      </trkpt>
      <trkpt lat="43.01677" lon="-0.1377">
        <ele>832.6</ele>
        <time>2024-08-27T01:13:49.791Z</time>
      </trkpt>
      <trkpt lat="43.01668" lon="-0.13859">
        <ele>840.5</ele>
        <time>2024-08-27T01:14:33.774Z</time>
      </trkpt>
      <trkpt lat="43.01677" lon="-0.13955">
        <ele>842.2</ele>
        <time>2024-08-27T01:15:08.029Z</time>
      </trkpt>
      <trkpt lat="43.01672" lon="-0.14">
        <ele>845.5</ele>
        <time>2024-08-27T01:15:28.712Z</time>
      </trkpt>
      <trkpt lat="43.01654" lon="-0.14106">
        <ele>854</ele>
        <time>2024-08-27T01:16:19.507Z</time>
      </trkpt>
      <trkpt lat="43.01645" lon="-0.14147">
        <ele>857.7</ele>
        <time>2024-08-27T01:16:40.311Z</time>
        <extensions>
          <visugpx:TrkExtension xmlns:visugpx="https://www.visugpx.com/editgpx/">
            <visugpx:node>24</visugpx:node>
            </visugpx:TrkExtension>
        </extensions>
      </trkpt>
      <trkpt lat="43.01642" lon="-0.14175">
        <ele>859.1</ele>
        <time>2024-08-27T01:16:51.858Z</time>
      </trkpt>
      <trkpt lat="43.01642" lon="-0.14216">
        <ele>859.8</ele>
        <time>2024-08-27T01:17:06.338Z</time>
      </trkpt>
      <trkpt lat="43.01632" lon="-0.14289">
        <ele>863.1</ele>
        <time>2024-08-27T01:17:35.954Z</time>
      </trkpt>
      <trkpt lat="43.01622" lon="-0.14334">
        <ele>864.8</ele>
        <time>2024-08-27T01:17:54.021Z</time>
      </trkpt>
      <trkpt lat="43.01593" lon="-0.14441">
        <ele>866.9</ele>
        <time>2024-08-27T01:18:34.557Z</time>
      </trkpt>
      <trkpt lat="43.01583" lon="-0.14471">
        <ele>870</ele>
        <time>2024-08-27T01:18:51.189Z</time>
      </trkpt>
      <trkpt lat="43.01562" lon="-0.14556">
        <ele>876.4</ele>
        <time>2024-08-27T01:19:31.733Z</time>
      </trkpt>
      <trkpt lat="43.01552" lon="-0.14583">
        <ele>878.9</ele>
        <time>2024-08-27T01:19:46.170Z</time>
      </trkpt>
      <trkpt lat="43.01526" lon="-0.14643">
        <ele>882.3</ele>
        <time>2024-08-27T01:20:14.535Z</time>
      </trkpt>
      <trkpt lat="43.0151" lon="-0.14698">
        <ele>883.2</ele>
        <time>2024-08-27T01:20:35.273Z</time>
      </trkpt>
      <trkpt lat="43.01507" lon="-0.14724">
        <ele>883.7</ele>
        <time>2024-08-27T01:20:44.647Z</time>
      </trkpt>
      <trkpt lat="43.01507" lon="-0.14764">
        <ele>883.9</ele>
        <time>2024-08-27T01:20:58.061Z</time>
      </trkpt>
      <trkpt lat="43.01512" lon="-0.14796">
        <ele>883.9</ele>
        <time>2024-08-27T01:21:08.806Z</time>
      </trkpt>
      <trkpt lat="43.01511" lon="-0.14867">
        <ele>885.9</ele>
        <time>2024-08-27T01:21:35.133Z</time>
      </trkpt>
      <trkpt lat="43.01513" lon="-0.1492">
        <ele>885.1</ele>
        <time>2024-08-27T01:21:51.500Z</time>
      </trkpt>
      <trkpt lat="43.01523" lon="-0.1499">
        <ele>885.5</ele>
        <time>2024-08-27T01:22:15.481Z</time>
      </trkpt>
      <trkpt lat="43.01537" lon="-0.15029">
        <ele>888.4</ele>
        <time>2024-08-27T01:22:34.692Z</time>
      </trkpt>
      <trkpt lat="43.01543" lon="-0.15039">
        <ele>888.7</ele>
        <time>2024-08-27T01:22:39.384Z</time>
      </trkpt>
      <trkpt lat="43.01549" lon="-0.15055">
        <ele>889.4</ele>
        <time>2024-08-27T01:22:46.379Z</time>
      </trkpt>
      <trkpt lat="43.0156" lon="-0.15097">
        <ele>887.9</ele>
        <time>2024-08-27T01:22:59.196Z</time>
      </trkpt>
      <trkpt lat="43.0156" lon="-0.15125">
        <ele>886.7</ele>
        <time>2024-08-27T01:23:07.240Z</time>
      </trkpt>
      <trkpt lat="43.01553" lon="-0.15146">
        <ele>886.6</ele>
        <time>2024-08-27T01:23:14.682Z</time>
      </trkpt>
      <trkpt lat="43.01543" lon="-0.15159">
        <ele>887</ele>
        <time>2024-08-27T01:23:21.466Z</time>
        <extensions>
          <visugpx:TrkExtension xmlns:visugpx="https://www.visugpx.com/editgpx/">
            <visugpx:node>25</visugpx:node>
            </visugpx:TrkExtension>
        </extensions>
      </trkpt>
      <trkpt lat="43.01514" lon="-0.15196">
        <ele>888.9</ele>
        <time>2024-08-27T01:23:42.199Z</time>
      </trkpt>
      <trkpt lat="43.01485" lon="-0.15226">
        <ele>893.5</ele>
        <time>2024-08-27T01:24:07.097Z</time>
      </trkpt>
      <trkpt lat="43.01464" lon="-0.15253">
        <ele>897.3</ele>
        <time>2024-08-27T01:24:27.217Z</time>
      </trkpt>
      <trkpt lat="43.01431" lon="-0.15303">
        <ele>903.1</ele>
        <time>2024-08-27T01:24:59.900Z</time>
      </trkpt>
      <trkpt lat="43.01407" lon="-0.15334">
        <ele>905.7</ele>
        <time>2024-08-27T01:25:19.025Z</time>
      </trkpt>
      <trkpt lat="43.0139" lon="-0.15351">
        <ele>907.6</ele>
        <time>2024-08-27T01:25:31.714Z</time>
      </trkpt>
      <trkpt lat="43.01368" lon="-0.15364">
        <ele>909.9</ele>
        <time>2024-08-27T01:25:46.445Z</time>
      </trkpt>
      <trkpt lat="43.0135" lon="-0.15377">
        <ele>912</ele>
        <time>2024-08-27T01:25:59.274Z</time>
      </trkpt>
      <trkpt lat="43.01334" lon="-0.15408">
        <ele>913.2</ele>
        <time>2024-08-27T01:26:13.559Z</time>
      </trkpt>
      <trkpt lat="43.0133" lon="-0.15426">
        <ele>913.5</ele>
        <time>2024-08-27T01:26:20.171Z</time>
      </trkpt>
      <trkpt lat="43.0133" lon="-0.15446">
        <ele>913.5</ele>
        <time>2024-08-27T01:26:26.738Z</time>
      </trkpt>
      <trkpt lat="43.01338" lon="-0.15476">
        <ele>913.7</ele>
        <time>2024-08-27T01:26:37.505Z</time>
      </trkpt>
      <trkpt lat="43.01372" lon="-0.1554">
        <ele>913</ele>
        <time>2024-08-27T01:27:02.538Z</time>
      </trkpt>
      <trkpt lat="43.01386" lon="-0.15573">
        <ele>913</ele>
        <time>2024-08-27T01:27:15.065Z</time>
      </trkpt>
      <trkpt lat="43.01394" lon="-0.15599">
        <ele>913.3</ele>
        <time>2024-08-27T01:27:24.755Z</time>
      </trkpt>
      <trkpt lat="43.01417" lon="-0.15702">
        <ele>914.3</ele>
        <time>2024-08-27T01:28:01.538Z</time>
      </trkpt>
      <trkpt lat="43.0142" lon="-0.15721">
        <ele>915</ele>
        <time>2024-08-27T01:28:09.001Z</time>
      </trkpt>
      <trkpt lat="43.01419" lon="-0.15786">
        <ele>916.3</ele>
        <time>2024-08-27T01:28:32.256Z</time>
      </trkpt>
      <trkpt lat="43.01427" lon="-0.15876">
        <ele>919.5</ele>
        <time>2024-08-27T01:29:06.952Z</time>
      </trkpt>
      <trkpt lat="43.01449" lon="-0.15972">
        <ele>923.8</ele>
        <time>2024-08-27T01:29:46.764Z</time>
      </trkpt>
      <trkpt lat="43.01455" lon="-0.16018">
        <ele>924.6</ele>
        <time>2024-08-27T01:30:03.271Z</time>
      </trkpt>
      <trkpt lat="43.0146" lon="-0.16139">
        <ele>928.9</ele>
        <time>2024-08-27T01:30:49.688Z</time>
      </trkpt>
      <trkpt lat="43.01457" lon="-0.16179">
        <ele>930.3</ele>
        <time>2024-08-27T01:31:05.043Z</time>
      </trkpt>
      <trkpt lat="43.01453" lon="-0.16193">
        <ele>931</ele>
        <time>2024-08-27T01:31:11.096Z</time>
      </trkpt>
      <trkpt lat="43.01413" lon="-0.16265">
        <ele>936.4</ele>
        <time>2024-08-27T01:31:49.783Z</time>
      </trkpt>
      <trkpt lat="43.014" lon="-0.16278">
        <ele>937.8</ele>
        <time>2024-08-27T01:31:59.378Z</time>
      </trkpt>
      <trkpt lat="43.01382" lon="-0.16286">
        <ele>939.4</ele>
        <time>2024-08-27T01:32:10.561Z</time>
      </trkpt>
      <trkpt lat="43.01363" lon="-0.16285">
        <ele>941.5</ele>
        <time>2024-08-27T01:32:22.855Z</time>
        <extensions>
          <visugpx:TrkExtension xmlns:visugpx="https://www.visugpx.com/editgpx/">
            <visugpx:node>26</visugpx:node>
            </visugpx:TrkExtension>
        </extensions>
      </trkpt>
      <trkpt lat="43.01356" lon="-0.16283">
        <ele>942.2</ele>
        <time>2024-08-27T01:32:27.280Z</time>
      </trkpt>
      <trkpt lat="43.01322" lon="-0.1627">
        <ele>944.7</ele>
        <time>2024-08-27T01:32:47.192Z</time>
      </trkpt>
      <trkpt lat="43.01286" lon="-0.16251">
        <ele>946.4</ele>
        <time>2024-08-27T01:33:07.112Z</time>
      </trkpt>
      <trkpt lat="43.01241" lon="-0.16217">
        <ele>950.1</ele>
        <time>2024-08-27T01:33:36.221Z</time>
      </trkpt>
      <trkpt lat="43.01216" lon="-0.16195">
        <ele>952.7</ele>
        <time>2024-08-27T01:33:53.964Z</time>
      </trkpt>
      <trkpt lat="43.01185" lon="-0.16171">
        <ele>956.6</ele>
        <time>2024-08-27T01:34:16.919Z</time>
      </trkpt>
      <trkpt lat="43.01176" lon="-0.16161">
        <ele>957.5</ele>
        <time>2024-08-27T01:34:23.611Z</time>
      </trkpt>
      <trkpt lat="43.01143" lon="-0.16137">
        <ele>960.8</ele>
        <time>2024-08-27T01:34:45.983Z</time>
      </trkpt>
      <trkpt lat="43.0112" lon="-0.16131">
        <ele>962.8</ele>
        <time>2024-08-27T01:34:59.860Z</time>
      </trkpt>
      <trkpt lat="43.01106" lon="-0.16133">
        <ele>963.9</ele>
        <time>2024-08-27T01:35:07.998Z</time>
      </trkpt>
      <trkpt lat="43.01096" lon="-0.16138">
        <ele>964.7</ele>
        <time>2024-08-27T01:35:14.091Z</time>
      </trkpt>
      <trkpt lat="43.01043" lon="-0.16192">
        <ele>968.5</ele>
        <time>2024-08-27T01:35:49.748Z</time>
      </trkpt>
      <trkpt lat="43.0102" lon="-0.16222">
        <ele>970.7</ele>
        <time>2024-08-27T01:36:07.579Z</time>
      </trkpt>
      <trkpt lat="43.01003" lon="-0.16251">
        <ele>974.4</ele>
        <time>2024-08-27T01:36:26.850Z</time>
      </trkpt>
      <trkpt lat="43.00995" lon="-0.16282">
        <ele>976.3</ele>
        <time>2024-08-27T01:36:40.790Z</time>
      </trkpt>
      <trkpt lat="43.00991" lon="-0.16308">
        <ele>977.3</ele>
        <time>2024-08-27T01:36:51.066Z</time>
      </trkpt>
      <trkpt lat="43.00985" lon="-0.16383">
        <ele>978</ele>
        <time>2024-08-27T01:37:16.835Z</time>
      </trkpt>
      <trkpt lat="43.00986" lon="-0.16639">
        <ele>973</ele>
        <time>2024-08-27T01:38:34.368Z</time>
      </trkpt>
      <trkpt lat="43.00992" lon="-0.16681">
        <ele>971</ele>
        <time>2024-08-27T01:38:46.663Z</time>
      </trkpt>
      <trkpt lat="43.01004" lon="-0.16738">
        <ele>967.8</ele>
        <time>2024-08-27T01:39:03.706Z</time>
      </trkpt>
      <trkpt lat="43.01014" lon="-0.168">
        <ele>967.8</ele>
        <time>2024-08-27T01:39:24.554Z</time>
      </trkpt>
      <trkpt lat="43.01024" lon="-0.16843">
        <ele>967.5</ele>
        <time>2024-08-27T01:39:38.964Z</time>
      </trkpt>
      <trkpt lat="43.01044" lon="-0.16956">
        <ele>972.1</ele>
        <time>2024-08-27T01:40:24.320Z</time>
      </trkpt>
      <trkpt lat="43.01048" lon="-0.17015">
        <ele>970.5</ele>
        <time>2024-08-27T01:40:41.731Z</time>
      </trkpt>
      <trkpt lat="43.01055" lon="-0.17058">
        <ele>968.1</ele>
        <time>2024-08-27T01:40:54.388Z</time>
      </trkpt>
      <trkpt lat="43.01061" lon="-0.17131">
        <ele>964.9</ele>
        <time>2024-08-27T01:41:15.494Z</time>
      </trkpt>
      <trkpt lat="43.01067" lon="-0.17176">
        <ele>962.8</ele>
        <time>2024-08-27T01:41:28.637Z</time>
      </trkpt>
      <trkpt lat="43.01085" lon="-0.17267">
        <ele>961.3</ele>
        <time>2024-08-27T01:41:57.612Z</time>
      </trkpt>
      <trkpt lat="43.01088" lon="-0.17295">
        <ele>961.5</ele>
        <time>2024-08-27T01:42:07.187Z</time>
      </trkpt>
      <trkpt lat="43.01094" lon="-0.17513">
        <ele>970.4</ele>
        <time>2024-08-27T01:43:32.765Z</time>
        <extensions>
          <visugpx:TrkExtension xmlns:visugpx="https://www.visugpx.com/editgpx/">
            <visugpx:node>27</visugpx:node>
            </visugpx:TrkExtension>
        </extensions>
      </trkpt>
      <trkpt lat="43.01096" lon="-0.17677">
        <ele>975.1</ele>
        <time>2024-08-27T01:44:33.712Z</time>
      </trkpt>
      <trkpt lat="43.01092" lon="-0.17716">
        <ele>976.5</ele>
        <time>2024-08-27T01:44:48.800Z</time>
      </trkpt>
      <trkpt lat="43.01092" lon="-0.17793">
        <ele>976.5</ele>
        <time>2024-08-27T01:45:14.084Z</time>
      </trkpt>
      <trkpt lat="43.0109" lon="-0.17818">
        <ele>977.1</ele>
        <time>2024-08-27T01:45:23.234Z</time>
      </trkpt>
      <trkpt lat="43.01083" lon="-0.17866">
        <ele>979.1</ele>
        <time>2024-08-27T01:45:42.440Z</time>
      </trkpt>
      <trkpt lat="43.01077" lon="-0.17937">
        <ele>981.8</ele>
        <time>2024-08-27T01:46:10.099Z</time>
      </trkpt>
      <trkpt lat="43.0107" lon="-0.17984">
        <ele>982.9</ele>
        <time>2024-08-27T01:46:27.478Z</time>
      </trkpt>
      <trkpt lat="43.01069" lon="-0.18022">
        <ele>982.6</ele>
        <time>2024-08-27T01:46:39.559Z</time>
      </trkpt>
      <trkpt lat="43.01073" lon="-0.18046">
        <ele>981.9</ele>
        <time>2024-08-27T01:46:46.750Z</time>
      </trkpt>
      <trkpt lat="43.01073" lon="-0.18067">
        <ele>982.1</ele>
        <time>2024-08-27T01:46:53.930Z</time>
      </trkpt>
      <trkpt lat="43.01071" lon="-0.18082">
        <ele>982.7</ele>
        <time>2024-08-27T01:46:59.873Z</time>
      </trkpt>
      <trkpt lat="43.01047" lon="-0.18194">
        <ele>984.2</ele>
        <time>2024-08-27T01:47:40.351Z</time>
      </trkpt>
      <trkpt lat="43.0103" lon="-0.18249">
        <ele>985.7</ele>
        <time>2024-08-27T01:48:02.196Z</time>
      </trkpt>
      <trkpt lat="43.01008" lon="-0.18305">
        <ele>988.6</ele>
        <time>2024-08-27T01:48:27.684Z</time>
      </trkpt>
      <trkpt lat="43.00959" lon="-0.18462">
        <ele>1002.2</ele>
        <time>2024-08-27T01:49:47.970Z</time>
      </trkpt>
      <trkpt lat="43.00933" lon="-0.18503">
        <ele>1009</ele>
        <time>2024-08-27T01:50:20.049Z</time>
      </trkpt>
      <trkpt lat="43.00909" lon="-0.18537">
        <ele>1015</ele>
        <time>2024-08-27T01:50:48.225Z</time>
      </trkpt>
      <trkpt lat="43.0085" lon="-0.18603">
        <ele>1027.9</ele>
        <time>2024-08-27T01:51:49.348Z</time>
      </trkpt>
      <trkpt lat="43.00838" lon="-0.18619">
        <ele>1029.9</ele>
        <time>2024-08-27T01:52:00.532Z</time>
      </trkpt>
      <trkpt lat="43.00822" lon="-0.18651">
        <ele>1030.7</ele>
        <time>2024-08-27T01:52:14.438Z</time>
      </trkpt>
      <trkpt lat="43.00803" lon="-0.18701">
        <ele>1030.1</ele>
        <time>2024-08-27T01:52:32.138Z</time>
      </trkpt>
      <trkpt lat="43.00797" lon="-0.1874">
        <ele>1029.1</ele>
        <time>2024-08-27T01:52:43.939Z</time>
      </trkpt>
      <trkpt lat="43.00797" lon="-0.18787">
        <ele>1028.5</ele>
        <time>2024-08-27T01:52:58.574Z</time>
      </trkpt>
      <trkpt lat="43.00794" lon="-0.18802">
        <ele>1029.3</ele>
        <time>2024-08-27T01:53:04.978Z</time>
      </trkpt>
      <trkpt lat="43.00773" lon="-0.18869">
        <ele>1036.7</ele>
        <time>2024-08-27T01:53:43.146Z</time>
      </trkpt>
      <trkpt lat="43.00746" lon="-0.18926">
        <ele>1045.4</ele>
        <time>2024-08-27T01:54:23.880Z</time>
      </trkpt>
      <trkpt lat="43.00739" lon="-0.18947">
        <ele>1047.7</ele>
        <time>2024-08-27T01:54:35.852Z</time>
      </trkpt>
      <trkpt lat="43.00724" lon="-0.1902">
        <ele>1053</ele>
        <time>2024-08-27T01:55:09.888Z</time>
      </trkpt>
      <trkpt lat="43.00715" lon="-0.1905">
        <ele>1058.4</ele>
        <time>2024-08-27T01:55:33.784Z</time>
      </trkpt>
      <trkpt lat="43.00715" lon="-0.19066">
        <ele>1059.1</ele>
        <time>2024-08-27T01:55:40.146Z</time>
      </trkpt>
      <trkpt lat="43.00719" lon="-0.19089">
        <ele>1057.8</ele>
        <time>2024-08-27T01:55:46.939Z</time>
      </trkpt>
      <trkpt lat="43.00721" lon="-0.19116">
        <ele>1056.9</ele>
        <time>2024-08-27T01:55:54.737Z</time>
      </trkpt>
      <trkpt lat="43.00723" lon="-0.19162">
        <ele>1056.6</ele>
        <time>2024-08-27T01:56:09.462Z</time>
      </trkpt>
      <trkpt lat="43.00719" lon="-0.19223">
        <ele>1060.2</ele>
        <time>2024-08-27T01:56:35.553Z</time>
      </trkpt>
      <trkpt lat="43.0072" lon="-0.19266">
        <ele>1061.7</ele>
        <time>2024-08-27T01:56:51.987Z</time>
      </trkpt>
      <trkpt lat="43.00727" lon="-0.19295">
        <ele>1059.6</ele>
        <time>2024-08-27T01:57:00.762Z</time>
      </trkpt>
      <trkpt lat="43.00728" lon="-0.1933">
        <ele>1060.6</ele>
        <time>2024-08-27T01:57:13.772Z</time>
      </trkpt>
      <trkpt lat="43.00717" lon="-0.19425">
        <ele>1060.6</ele>
        <time>2024-08-27T01:57:45.357Z</time>
      </trkpt>
      <trkpt lat="43.00712" lon="-0.19441">
        <ele>1061</ele>
        <time>2024-08-27T01:57:51.663Z</time>
      </trkpt>
      <trkpt lat="43.007" lon="-0.19472">
        <ele>1062.2</ele>
        <time>2024-08-27T01:58:05.023Z</time>
      </trkpt>
      <trkpt lat="43.00686" lon="-0.19502">
        <ele>1062.1</ele>
        <time>2024-08-27T01:58:16.572Z</time>
      </trkpt>
      <trkpt lat="43.00652" lon="-0.19558">
        <ele>1058.7</ele>
        <time>2024-08-27T01:58:37.486Z</time>
      </trkpt>
      <trkpt lat="43.00643" lon="-0.1957">
        <ele>1058.6</ele>
        <time>2024-08-27T01:58:42.995Z</time>
      </trkpt>
      <trkpt lat="43.00612" lon="-0.19602">
        <ele>1058.4</ele>
        <time>2024-08-27T01:59:00.163Z</time>
      </trkpt>
      <trkpt lat="43.006" lon="-0.19612">
        <ele>1058.6</ele>
        <time>2024-08-27T01:59:06.759Z</time>
      </trkpt>
      <trkpt lat="43.0059" lon="-0.1962">
        <ele>1059.2</ele>
        <time>2024-08-27T01:59:12.893Z</time>
      </trkpt>
      <trkpt lat="43.00567" lon="-0.19628">
        <ele>1062.4</ele>
        <time>2024-08-27T01:59:29.641Z</time>
      </trkpt>
      <trkpt lat="43.00555" lon="-0.19636">
        <ele>1062.2</ele>
        <time>2024-08-27T01:59:35.368Z</time>
      </trkpt>
      <trkpt lat="43.00516" lon="-0.19657">
        <ele>1064.1</ele>
        <time>2024-08-27T01:59:57.096Z</time>
      </trkpt>
      <trkpt lat="43.00487" lon="-0.19667">
        <ele>1066.2</ele>
        <time>2024-08-27T02:00:13.930Z</time>
      </trkpt>
      <trkpt lat="43.00438" lon="-0.19678">
        <ele>1068.9</ele>
        <time>2024-08-27T02:00:40.445Z</time>
      </trkpt>
      <trkpt lat="43.00378" lon="-0.19696">
        <ele>1068.9</ele>
        <time>2024-08-27T02:01:08.030Z</time>
      </trkpt>
      <trkpt lat="43.00369" lon="-0.19704">
        <ele>1068.2</ele>
        <time>2024-08-27T02:01:12.248Z</time>
      </trkpt>
      <trkpt lat="43.00369" lon="-0.19708">
        <ele>1067.4</ele>
        <time>2024-08-27T02:01:13.397Z</time>
      </trkpt>
      <trkpt lat="43.00389" lon="-0.19707">
        <ele>1065.7</ele>
        <time>2024-08-27T02:01:21.261Z</time>
        <extensions>
          <visugpx:TrkExtension xmlns:visugpx="https://www.visugpx.com/editgpx/">
            <visugpx:node>28</visugpx:node>
            </visugpx:TrkExtension>
        </extensions>
      </trkpt>
      <trkpt lat="43.00369" lon="-0.19708">
        <ele>1067.4</ele>
        <time>2024-08-27T02:01:33.103Z</time>
      </trkpt>
      <trkpt lat="43.00367" lon="-0.19716">
        <ele>1065.9</ele>
        <time>2024-08-27T02:01:35.532Z</time>
      </trkpt>
      <trkpt lat="43.00368" lon="-0.19725">
        <ele>1065.4</ele>
        <time>2024-08-27T02:01:38.148Z</time>
      </trkpt>
      <trkpt lat="43.00377" lon="-0.19737">
        <ele>1068.3</ele>
        <time>2024-08-27T02:01:50.969Z</time>
      </trkpt>
      <trkpt lat="43.00406" lon="-0.19753">
        <ele>1070.6</ele>
        <time>2024-08-27T02:02:08.769Z</time>
      </trkpt>
      <trkpt lat="43.00487" lon="-0.19788">
        <ele>1073.7</ele>
        <time>2024-08-27T02:02:51.562Z</time>
      </trkpt>
      <trkpt lat="43.00556" lon="-0.1982">
        <ele>1073.1</ele>
        <time>2024-08-27T02:03:23.466Z</time>
      </trkpt>
      <trkpt lat="43.00572" lon="-0.19832">
        <ele>1072.5</ele>
        <time>2024-08-27T02:03:30.887Z</time>
      </trkpt>
      <trkpt lat="43.00576" lon="-0.19838">
        <ele>1073</ele>
        <time>2024-08-27T02:03:34.391Z</time>
      </trkpt>
      <trkpt lat="43.00582" lon="-0.19853">
        <ele>1074.7</ele>
        <time>2024-08-27T02:03:43.251Z</time>
      </trkpt>
      <trkpt lat="43.00584" lon="-0.19865">
        <ele>1076.5</ele>
        <time>2024-08-27T02:03:51.376Z</time>
      </trkpt>
      <trkpt lat="43.0059" lon="-0.19931">
        <ele>1083</ele>
        <time>2024-08-27T02:04:25.550Z</time>
      </trkpt>
      <trkpt lat="43.00586" lon="-0.19955">
        <ele>1085.4</ele>
        <time>2024-08-27T02:04:38.184Z</time>
      </trkpt>
      <trkpt lat="43.00586" lon="-0.19994">
        <ele>1084.7</ele>
        <time>2024-08-27T02:04:50.072Z</time>
      </trkpt>
      <trkpt lat="43.00582" lon="-0.20035">
        <ele>1085.8</ele>
        <time>2024-08-27T02:05:05.304Z</time>
      </trkpt>
      <trkpt lat="43.00582" lon="-0.20049">
        <ele>1085.8</ele>
        <time>2024-08-27T02:05:09.901Z</time>
      </trkpt>
      <trkpt lat="43.00588" lon="-0.20076">
        <ele>1083.7</ele>
        <time>2024-08-27T02:05:18.010Z</time>
      </trkpt>
      <trkpt lat="43.0059" lon="-0.20094">
        <ele>1084.3</ele>
        <time>2024-08-27T02:05:24.906Z</time>
      </trkpt>
      <trkpt lat="43.00592" lon="-0.20137">
        <ele>1087.5</ele>
        <time>2024-08-27T02:05:44.653Z</time>
      </trkpt>
      <trkpt lat="43.00591" lon="-0.20172">
        <ele>1089</ele>
        <time>2024-08-27T02:05:58.520Z</time>
      </trkpt>
      <trkpt lat="43.00576" lon="-0.20213">
        <ele>1094.2</ele>
        <time>2024-08-27T02:06:24.013Z</time>
      </trkpt>
      <trkpt lat="43.00562" lon="-0.20238">
        <ele>1098</ele>
        <time>2024-08-27T02:06:42.186Z</time>
      </trkpt>
      <trkpt lat="43.00548" lon="-0.20248">
        <ele>1102</ele>
        <time>2024-08-27T02:06:59.842Z</time>
      </trkpt>
      <trkpt lat="43.00515" lon="-0.20257">
        <ele>1111.9</ele>
        <time>2024-08-27T02:07:44.410Z</time>
      </trkpt>
      <trkpt lat="43.00507" lon="-0.20261">
        <ele>1114</ele>
        <time>2024-08-27T02:07:53.674Z</time>
      </trkpt>
      <trkpt lat="43.00507" lon="-0.20273">
        <ele>1113.8</ele>
        <time>2024-08-27T02:07:57.351Z</time>
      </trkpt>
      <trkpt lat="43.00528" lon="-0.20305">
        <ele>1106.9</ele>
        <time>2024-08-27T02:08:09.706Z</time>
      </trkpt>
      <trkpt lat="43.00531" lon="-0.20317">
        <ele>1106</ele>
        <time>2024-08-27T02:08:13.350Z</time>
      </trkpt>
      <trkpt lat="43.00529" lon="-0.20345">
        <ele>1106.6</ele>
        <time>2024-08-27T02:08:23.473Z</time>
      </trkpt>
      <trkpt lat="43.00521" lon="-0.20365">
        <ele>1108.8</ele>
        <time>2024-08-27T02:08:35.116Z</time>
      </trkpt>
      <trkpt lat="43.00508" lon="-0.20385">
        <ele>1113.3</ele>
        <time>2024-08-27T02:08:55.014Z</time>
      </trkpt>
      <trkpt lat="43.00502" lon="-0.20422">
        <ele>1113</ele>
        <time>2024-08-27T02:09:07.055Z</time>
      </trkpt>
      <trkpt lat="43.00494" lon="-0.20451">
        <ele>1115.3</ele>
        <time>2024-08-27T02:09:21.256Z</time>
      </trkpt>
      <trkpt lat="43.00478" lon="-0.20472">
        <ele>1119.9</ele>
        <time>2024-08-27T02:09:41.869Z</time>
      </trkpt>
      <trkpt lat="43.00448" lon="-0.20497">
        <ele>1125.4</ele>
        <time>2024-08-27T02:10:08.728Z</time>
      </trkpt>
      <trkpt lat="43.00429" lon="-0.20509">
        <ele>1130</ele>
        <time>2024-08-27T02:10:29.160Z</time>
      </trkpt>
      <trkpt lat="43.00408" lon="-0.20526">
        <ele>1135.5</ele>
        <time>2024-08-27T02:10:53.522Z</time>
      </trkpt>
      <trkpt lat="43.00405" lon="-0.2054">
        <ele>1136.7</ele>
        <time>2024-08-27T02:11:00.470Z</time>
      </trkpt>
      <trkpt lat="43.00406" lon="-0.20551">
        <ele>1136.7</ele>
        <time>2024-08-27T02:11:04.110Z</time>
      </trkpt>
      <trkpt lat="43.00422" lon="-0.20593">
        <ele>1131.9</ele>
        <time>2024-08-27T02:11:17.718Z</time>
      </trkpt>
      <trkpt lat="43.0042" lon="-0.20643">
        <ele>1134.5</ele>
        <time>2024-08-27T02:11:38.385Z</time>
      </trkpt>
      <trkpt lat="43.00412" lon="-0.20674">
        <ele>1139.7</ele>
        <time>2024-08-27T02:12:01.530Z</time>
      </trkpt>
      <trkpt lat="43.00408" lon="-0.20714">
        <ele>1141.4</ele>
        <time>2024-08-27T02:12:17.463Z</time>
      </trkpt>
      <trkpt lat="43.00398" lon="-0.20761">
        <ele>1142.3</ele>
        <time>2024-08-27T02:12:34.853Z</time>
      </trkpt>
      <trkpt lat="43.00381" lon="-0.20792">
        <ele>1146.7</ele>
        <time>2024-08-27T02:12:56.414Z</time>
      </trkpt>
      <trkpt lat="43.00352" lon="-0.2083">
        <ele>1158.7</ele>
        <time>2024-08-27T02:13:50.634Z</time>
      </trkpt>
      <trkpt lat="43.00346" lon="-0.20844">
        <ele>1162.8</ele>
        <time>2024-08-27T02:14:10.089Z</time>
      </trkpt>
      <trkpt lat="43.00347" lon="-0.20857">
        <ele>1163.7</ele>
        <time>2024-08-27T02:14:15.927Z</time>
      </trkpt>
      <trkpt lat="43.00351" lon="-0.20869">
        <ele>1163.9</ele>
        <time>2024-08-27T02:14:20.548Z</time>
      </trkpt>
      <trkpt lat="43.00376" lon="-0.209">
        <ele>1157.3</ele>
        <time>2024-08-27T02:14:33.808Z</time>
      </trkpt>
      <trkpt lat="43.00383" lon="-0.20911">
        <ele>1155.3</ele>
        <time>2024-08-27T02:14:37.998Z</time>
      </trkpt>
      <trkpt lat="43.00382" lon="-0.20925">
        <ele>1156.3</ele>
        <time>2024-08-27T02:14:44.348Z</time>
      </trkpt>
      <trkpt lat="43.0036" lon="-0.20986">
        <ele>1161.6</ele>
        <time>2024-08-27T02:15:16.071Z</time>
      </trkpt>
      <trkpt lat="43.00343" lon="-0.21012">
        <ele>1166.1</ele>
        <time>2024-08-27T02:15:37.091Z</time>
      </trkpt>
      <trkpt lat="43.00311" lon="-0.21049">
        <ele>1176.3</ele>
        <time>2024-08-27T02:16:22.087Z</time>
      </trkpt>
      <trkpt lat="43.00303" lon="-0.21102">
        <ele>1170.8</ele>
        <time>2024-08-27T02:16:37.638Z</time>
      </trkpt>
      <trkpt lat="43.00293" lon="-0.21136">
        <ele>1168.9</ele>
        <time>2024-08-27T02:16:48.168Z</time>
      </trkpt>
      <trkpt lat="43.00276" lon="-0.21186">
        <ele>1167.2</ele>
        <time>2024-08-27T02:17:04.126Z</time>
      </trkpt>
      <trkpt lat="43.00263" lon="-0.2121">
        <ele>1168</ele>
        <time>2024-08-27T02:17:15.133Z</time>
      </trkpt>
      <trkpt lat="43.00242" lon="-0.21234">
        <ele>1170.7</ele>
        <time>2024-08-27T02:17:32.113Z</time>
      </trkpt>
      <trkpt lat="43.00222" lon="-0.21252">
        <ele>1172.9</ele>
        <time>2024-08-27T02:17:46.622Z</time>
      </trkpt>
      <trkpt lat="43.00202" lon="-0.21263">
        <ele>1177.1</ele>
        <time>2024-08-27T02:18:05.694Z</time>
      </trkpt>
      <trkpt lat="43.00185" lon="-0.21266">
        <ele>1181.3</ele>
        <time>2024-08-27T02:18:24.221Z</time>
      </trkpt>
      <trkpt lat="43.00179" lon="-0.21269">
        <ele>1182.3</ele>
        <time>2024-08-27T02:18:29.105Z</time>
      </trkpt>
      <trkpt lat="43.00176" lon="-0.21274">
        <ele>1182.1</ele>
        <time>2024-08-27T02:18:30.976Z</time>
      </trkpt>
      <trkpt lat="43.00174" lon="-0.21291">
        <ele>1180.1</ele>
        <time>2024-08-27T02:18:35.924Z</time>
      </trkpt>
      <trkpt lat="43.00176" lon="-0.2131">
        <ele>1177.3</ele>
        <time>2024-08-27T02:18:41.440Z</time>
      </trkpt>
      <trkpt lat="43.00175" lon="-0.21368">
        <ele>1175.9</ele>
        <time>2024-08-27T02:18:58.688Z</time>
      </trkpt>
      <trkpt lat="43.00173" lon="-0.21387">
        <ele>1177.4</ele>
        <time>2024-08-27T02:19:07.651Z</time>
      </trkpt>
      <trkpt lat="43.00167" lon="-0.21416">
        <ele>1179</ele>
        <time>2024-08-27T02:19:20.157Z</time>
      </trkpt>
      <trkpt lat="43.00167" lon="-0.21428">
        <ele>1180.7</ele>
        <time>2024-08-27T02:19:27.888Z</time>
      </trkpt>
      <trkpt lat="43.00177" lon="-0.21452">
        <ele>1186.3</ele>
        <time>2024-08-27T02:19:52.816Z</time>
      </trkpt>
      <trkpt lat="43.00181" lon="-0.21454">
        <ele>1187.4</ele>
        <time>2024-08-27T02:19:57.676Z</time>
        <extensions>
          <visugpx:TrkExtension xmlns:visugpx="https://www.visugpx.com/editgpx/">
            <visugpx:node>29</visugpx:node>
            </visugpx:TrkExtension>
        </extensions>
      </trkpt>
      <trkpt lat="43.00185" lon="-0.21456">
        <ele>1188.7</ele>
        <time>2024-08-27T02:20:03.583Z</time>
      </trkpt>
      <trkpt lat="43.00193" lon="-0.21456">
        <ele>1190.1</ele>
        <time>2024-08-27T02:20:10.140Z</time>
      </trkpt>
      <trkpt lat="43.00198" lon="-0.21453">
        <ele>1190.5</ele>
        <time>2024-08-27T02:20:13.245Z</time>
      </trkpt>
      <trkpt lat="43.00211" lon="-0.21436">
        <ele>1189.1</ele>
        <time>2024-08-27T02:20:20.313Z</time>
      </trkpt>
      <trkpt lat="43.00226" lon="-0.2142">
        <ele>1187.3</ele>
        <time>2024-08-27T02:20:27.788Z</time>
      </trkpt>
      <trkpt lat="43.00235" lon="-0.21414">
        <ele>1187.8</ele>
        <time>2024-08-27T02:20:33.057Z</time>
      </trkpt>
      <trkpt lat="43.00262" lon="-0.21402">
        <ele>1191.8</ele>
        <time>2024-08-27T02:20:53.540Z</time>
      </trkpt>
      <trkpt lat="43.00301" lon="-0.21374">
        <ele>1192.4</ele>
        <time>2024-08-27T02:21:14.175Z</time>
      </trkpt>
      <trkpt lat="43.00314" lon="-0.21368">
        <ele>1193.1</ele>
        <time>2024-08-27T02:21:21.421Z</time>
      </trkpt>
      <trkpt lat="43.00342" lon="-0.21361">
        <ele>1197.8</ele>
        <time>2024-08-27T02:21:43.894Z</time>
      </trkpt>
      <trkpt lat="43.00355" lon="-0.21356">
        <ele>1200.2</ele>
        <time>2024-08-27T02:21:55.078Z</time>
      </trkpt>
      <trkpt lat="43.00369" lon="-0.21346">
        <ele>1202.2</ele>
        <time>2024-08-27T02:22:05.898Z</time>
      </trkpt>
      <trkpt lat="43.00405" lon="-0.21306">
        <ele>1201.7</ele>
        <time>2024-08-27T02:22:26.053Z</time>
      </trkpt>
      <trkpt lat="43.00431" lon="-0.21291">
        <ele>1208.5</ele>
        <time>2024-08-27T02:22:56.054Z</time>
      </trkpt>
      <trkpt lat="43.00467" lon="-0.21257">
        <ele>1213.9</ele>
        <time>2024-08-27T02:23:25.682Z</time>
      </trkpt>
      <trkpt lat="43.00503" lon="-0.21227">
        <ele>1218.2</ele>
        <time>2024-08-27T02:23:52.144Z</time>
      </trkpt>
      <trkpt lat="43.00532" lon="-0.21209">
        <ele>1223.6</ele>
        <time>2024-08-27T02:24:17.712Z</time>
      </trkpt>
      <trkpt lat="43.00568" lon="-0.21182">
        <ele>1229.3</ele>
        <time>2024-08-27T02:24:47.112Z</time>
      </trkpt>
      <trkpt lat="43.00599" lon="-0.21141">
        <ele>1229.9</ele>
        <time>2024-08-27T02:25:07.334Z</time>
      </trkpt>
      <trkpt lat="43.0064" lon="-0.21109">
        <ele>1237.7</ele>
        <time>2024-08-27T02:25:44.620Z</time>
      </trkpt>
      <trkpt lat="43.0068" lon="-0.21069">
        <ele>1236.6</ele>
        <time>2024-08-27T02:26:05.422Z</time>
      </trkpt>
      <trkpt lat="43.0069" lon="-0.21064">
        <ele>1238.3</ele>
        <time>2024-08-27T02:26:13.657Z</time>
      </trkpt>
      <trkpt lat="43.00713" lon="-0.21059">
        <ele>1245.6</ele>
        <time>2024-08-27T02:26:47.085Z</time>
      </trkpt>
      <trkpt lat="43.00721" lon="-0.21055">
        <ele>1247.3</ele>
        <time>2024-08-27T02:26:54.762Z</time>
      </trkpt>
      <trkpt lat="43.00733" lon="-0.21039">
        <ele>1247.1</ele>
        <time>2024-08-27T02:27:02.019Z</time>
        <extensions>
          <visugpx:TrkExtension xmlns:visugpx="https://www.visugpx.com/editgpx/">
            <visugpx:node>30</visugpx:node>
            </visugpx:TrkExtension>
        </extensions>
      </trkpt>
      <trkpt lat="43.00747" lon="-0.21016">
        <ele>1245.9</ele>
        <time>2024-08-27T02:27:10.617Z</time>
      </trkpt>
      <trkpt lat="43.00753" lon="-0.21003">
        <ele>1243.6</ele>
        <time>2024-08-27T02:27:15.034Z</time>
      </trkpt>
      <trkpt lat="43.00762" lon="-0.20992">
        <ele>1241.7</ele>
        <time>2024-08-27T02:27:19.777Z</time>
      </trkpt>
      <trkpt lat="43.00769" lon="-0.20987">
        <ele>1241.4</ele>
        <time>2024-08-27T02:27:22.941Z</time>
      </trkpt>
      <trkpt lat="43.00779" lon="-0.20988">
        <ele>1243.9</ele>
        <time>2024-08-27T02:27:33.971Z</time>
      </trkpt>
      <trkpt lat="43.00786" lon="-0.20994">
        <ele>1246.9</ele>
        <time>2024-08-27T02:27:48.522Z</time>
      </trkpt>
      <trkpt lat="43.00805" lon="-0.21005">
        <ele>1252.6</ele>
        <time>2024-08-27T02:28:13.882Z</time>
      </trkpt>
      <trkpt lat="43.00817" lon="-0.21007">
        <ele>1253.8</ele>
        <time>2024-08-27T02:28:21.398Z</time>
      </trkpt>
      <trkpt lat="43.00838" lon="-0.21007">
        <ele>1254.1</ele>
        <time>2024-08-27T02:28:31.256Z</time>
      </trkpt>
      <trkpt lat="43.00844" lon="-0.21009">
        <ele>1254.1</ele>
        <time>2024-08-27T02:28:34.029Z</time>
      </trkpt>
      <trkpt lat="43.00848" lon="-0.21013">
        <ele>1254.5</ele>
        <time>2024-08-27T02:28:36.919Z</time>
      </trkpt>
      <trkpt lat="43.00854" lon="-0.21022">
        <ele>1255.7</ele>
        <time>2024-08-27T02:28:43.202Z</time>
      </trkpt>
      <trkpt lat="43.00861" lon="-0.21046">
        <ele>1258.6</ele>
        <time>2024-08-27T02:28:57.483Z</time>
      </trkpt>
      <trkpt lat="43.00869" lon="-0.21088">
        <ele>1261.9</ele>
        <time>2024-08-27T02:29:17.542Z</time>
      </trkpt>
      <trkpt lat="43.00875" lon="-0.21124">
        <ele>1263.6</ele>
        <time>2024-08-27T02:29:32.376Z</time>
      </trkpt>
      <trkpt lat="43.00877" lon="-0.21168">
        <ele>1269.4</ele>
        <time>2024-08-27T02:29:59.300Z</time>
      </trkpt>
      <trkpt lat="43.00881" lon="-0.21191">
        <ele>1271.4</ele>
        <time>2024-08-27T02:30:10.687Z</time>
      </trkpt>
      <trkpt lat="43.00897" lon="-0.21234">
        <ele>1270.8</ele>
        <time>2024-08-27T02:30:25.731Z</time>
      </trkpt>
      <trkpt lat="43.00903" lon="-0.21261">
        <ele>1271.5</ele>
        <time>2024-08-27T02:30:36.040Z</time>
      </trkpt>
      <trkpt lat="43.00907" lon="-0.21288">
        <ele>1274.1</ele>
        <time>2024-08-27T02:30:49.962Z</time>
      </trkpt>
      <trkpt lat="43.00908" lon="-0.2136">
        <ele>1289.9</ele>
        <time>2024-08-27T02:32:01.428Z</time>
      </trkpt>
      <trkpt lat="43.00913" lon="-0.21389">
        <ele>1293.1</ele>
        <time>2024-08-27T02:32:17.497Z</time>
      </trkpt>
      <trkpt lat="43.00922" lon="-0.21422">
        <ele>1296.3</ele>
        <time>2024-08-27T02:32:34.989Z</time>
      </trkpt>
      <trkpt lat="43.00933" lon="-0.21474">
        <ele>1302.3</ele>
        <time>2024-08-27T02:33:04.697Z</time>
      </trkpt>
      <trkpt lat="43.00935" lon="-0.21478">
        <ele>1302.5</ele>
        <time>2024-08-27T02:33:06.602Z</time>
      </trkpt>
      <trkpt lat="43.00941" lon="-0.21479">
        <ele>1301.6</ele>
        <time>2024-08-27T02:33:08.977Z</time>
      </trkpt>
      <trkpt lat="43.00963" lon="-0.21476">
        <ele>1297.3</ele>
        <time>2024-08-27T02:33:17.664Z</time>
      </trkpt>
      <trkpt lat="43.00971" lon="-0.21481">
        <ele>1296.8</ele>
        <time>2024-08-27T02:33:21.120Z</time>
      </trkpt>
      <trkpt lat="43.00979" lon="-0.21492">
        <ele>1297.8</ele>
        <time>2024-08-27T02:33:27.907Z</time>
      </trkpt>
      <trkpt lat="43.00984" lon="-0.21506">
        <ele>1299.8</ele>
        <time>2024-08-27T02:33:37.265Z</time>
      </trkpt>
      <trkpt lat="43.01014" lon="-0.21539">
        <ele>1302.4</ele>
        <time>2024-08-27T02:33:58.741Z</time>
      </trkpt>
      <trkpt lat="43.01043" lon="-0.21581">
        <ele>1309.3</ele>
        <time>2024-08-27T02:34:31.868Z</time>
      </trkpt>
      <trkpt lat="43.01094" lon="-0.21635">
        <ele>1323.2</ele>
        <time>2024-08-27T02:35:33.770Z</time>
      </trkpt>
      <trkpt lat="43.01125" lon="-0.21631">
        <ele>1326.5</ele>
        <time>2024-08-27T02:35:53.589Z</time>
      </trkpt>
      <trkpt lat="43.01143" lon="-0.21627">
        <ele>1329</ele>
        <time>2024-08-27T02:36:06.564Z</time>
      </trkpt>
      <trkpt lat="43.01151" lon="-0.21623">
        <ele>1329.8</ele>
        <time>2024-08-27T02:36:11.762Z</time>
        <extensions>
          <visugpx:TrkExtension xmlns:visugpx="https://www.visugpx.com/editgpx/">
            <visugpx:node>31</visugpx:node>
            </visugpx:TrkExtension>
        </extensions>
      </trkpt>
      <trkpt lat="43.01168" lon="-0.21615">
        <ele>1331.5</ele>
        <time>2024-08-27T02:36:22.758Z</time>
      </trkpt>
      <trkpt lat="43.01175" lon="-0.21615">
        <ele>1333.6</ele>
        <time>2024-08-27T02:36:32.257Z</time>
      </trkpt>
      <trkpt lat="43.01179" lon="-0.21622">
        <ele>1336.9</ele>
        <time>2024-08-27T02:36:47.572Z</time>
      </trkpt>
      <trkpt lat="43.01177" lon="-0.21636">
        <ele>1340.5</ele>
        <time>2024-08-27T02:37:04.647Z</time>
      </trkpt>
      <trkpt lat="43.01175" lon="-0.21639">
        <ele>1340.7</ele>
        <time>2024-08-27T02:37:06.302Z</time>
      </trkpt>
      <trkpt lat="43.01158" lon="-0.21652">
        <ele>1339.4</ele>
        <time>2024-08-27T02:37:13.955Z</time>
      </trkpt>
      <trkpt lat="43.0114" lon="-0.21672">
        <ele>1339.5</ele>
        <time>2024-08-27T02:37:24.509Z</time>
      </trkpt>
      <trkpt lat="43.01134" lon="-0.21683">
        <ele>1340.6</ele>
        <time>2024-08-27T02:37:30.979Z</time>
      </trkpt>
      <trkpt lat="43.01099" lon="-0.2173">
        <ele>1347.6</ele>
        <time>2024-08-27T02:38:06.605Z</time>
      </trkpt>
      <trkpt lat="43.01091" lon="-0.21734">
        <ele>1348.6</ele>
        <time>2024-08-27T02:38:12.250Z</time>
      </trkpt>
      <trkpt lat="43.01071" lon="-0.21732">
        <ele>1348.7</ele>
        <time>2024-08-27T02:38:21.395Z</time>
      </trkpt>
      <trkpt lat="43.01029" lon="-0.21716">
        <ele>1348.1</ele>
        <time>2024-08-27T02:38:40.168Z</time>
      </trkpt>
      <trkpt lat="43.01013" lon="-0.21708">
        <ele>1347.5</ele>
        <time>2024-08-27T02:38:47.049Z</time>
      </trkpt>
      <trkpt lat="43.00981" lon="-0.21687">
        <ele>1344.9</ele>
        <time>2024-08-27T02:39:00.995Z</time>
      </trkpt>
      <trkpt lat="43.0097" lon="-0.21684">
        <ele>1345.3</ele>
        <time>2024-08-27T02:39:06.630Z</time>
      </trkpt>
      <trkpt lat="43.00962" lon="-0.21686">
        <ele>1347</ele>
        <time>2024-08-27T02:39:14.238Z</time>
      </trkpt>
      <trkpt lat="43.00958" lon="-0.2169">
        <ele>1348.8</ele>
        <time>2024-08-27T02:39:22.970Z</time>
      </trkpt>
      <trkpt lat="43.00955" lon="-0.21698">
        <ele>1351.6</ele>
        <time>2024-08-27T02:39:37.603Z</time>
      </trkpt>
      <trkpt lat="43.00955" lon="-0.21708">
        <ele>1354.6</ele>
        <time>2024-08-27T02:39:53.026Z</time>
        <extensions>
          <visugpx:TrkExtension xmlns:visugpx="https://www.visugpx.com/editgpx/">
            <visugpx:node>32</visugpx:node>
            </visugpx:TrkExtension>
        </extensions>
      </trkpt>
      <trkpt lat="43.00961" lon="-0.21722">
        <ele>1358.1</ele>
        <time>2024-08-27T02:40:08.792Z</time>
      </trkpt>
      <trkpt lat="43.00977" lon="-0.21733">
        <ele>1359.8</ele>
        <time>2024-08-27T02:40:19.759Z</time>
      </trkpt>
      <trkpt lat="43.01007" lon="-0.21769">
        <ele>1366.5</ele>
        <time>2024-08-27T02:40:51.598Z</time>
      </trkpt>
      <trkpt lat="43.01032" lon="-0.21794">
        <ele>1370.1</ele>
        <time>2024-08-27T02:41:12.039Z</time>
      </trkpt>
      <trkpt lat="43.01058" lon="-0.21815">
        <ele>1372.1</ele>
        <time>2024-08-27T02:41:28.811Z</time>
      </trkpt>
      <trkpt lat="43.01075" lon="-0.21825">
        <ele>1372.8</ele>
        <time>2024-08-27T02:41:38.173Z</time>
      </trkpt>
      <trkpt lat="43.01119" lon="-0.21841">
        <ele>1373.6</ele>
        <time>2024-08-27T02:41:59.767Z</time>
      </trkpt>
      <trkpt lat="43.01125" lon="-0.21845">
        <ele>1374.3</ele>
        <time>2024-08-27T02:42:03.999Z</time>
        <extensions>
          <visugpx:TrkExtension xmlns:visugpx="https://www.visugpx.com/editgpx/">
            <visugpx:node>33</visugpx:node>
            </visugpx:TrkExtension>
        </extensions>
      </trkpt>
    </trkseg>
  </trk>
</gpx>